<?xml version="1.0" encoding="UTF-8" standalone="no" ?>
<gpx xmlns="http://www.topografix.com/GPX/1/1" xmlns:xsi="http://www.w3.org/2001/XMLSchema-instance" xsi:schemaLocation="http://www.topografix.com/GPX/1/1 http://www.topografix.com/GPX/1/1/gpx.xsd" version="1.1" creator="VisuGPX - https://www.visugpx.com">
  <metadata>
    <name>Mimet </name>
  </metadata>
  <trk>
    <name><![CDATA[2022-05-13 10:08]]></name>
    <extensions>
      <line xmlns="http://www.topografix.com/GPX/gpx_style/0/2">
        <color>0000FF</color>
        <opacity>0.59</opacity>
        <width>6</width>
      </line>
    </extensions>
    <trkseg>
      <trkpt lat="43.41231" lon="5.5073">
        <ele>496.59</ele>
        <time>2022-05-13T08:08:54.999Z</time>
      </trkpt>
      <trkpt lat="43.41248" lon="5.50721">
        <ele>494.92</ele>
        <time>2022-05-13T08:09:54.114Z</time>
      </trkpt>
      <trkpt lat="43.41265" lon="5.50711">
        <ele>493.98</ele>
        <time>2022-05-13T08:10:05.513Z</time>
      </trkpt>
      <trkpt lat="43.41283" lon="5.50706">
        <ele>495.62</ele>
        <time>2022-05-13T08:10:22.593Z</time>
      </trkpt>
      <trkpt lat="43.41301" lon="5.50698">
        <ele>498.38</ele>
        <time>2022-05-13T08:10:42.156Z</time>
      </trkpt>
      <trkpt lat="43.41313" lon="5.50679">
        <ele>499.69</ele>
        <time>2022-05-13T08:10:53.974Z</time>
      </trkpt>
      <trkpt lat="43.41325" lon="5.50659">
        <ele>499.89</ele>
        <time>2022-05-13T08:11:08.759Z</time>
      </trkpt>
      <trkpt lat="43.41336" lon="5.5064">
        <ele>497.9</ele>
        <time>2022-05-13T08:11:31.558Z</time>
      </trkpt>
      <trkpt lat="43.41346" lon="5.50619">
        <ele>493.97</ele>
        <time>2022-05-13T08:11:44.339Z</time>
      </trkpt>
      <trkpt lat="43.41352" lon="5.50643">
        <ele>496.41</ele>
        <time>2022-05-13T08:12:04.578Z</time>
      </trkpt>
      <trkpt lat="43.41343" lon="5.50666">
        <ele>500.3</ele>
        <time>2022-05-13T08:12:17.838Z</time>
      </trkpt>
      <trkpt lat="43.41338" lon="5.5069">
        <ele>501.86</ele>
        <time>2022-05-13T08:12:30.599Z</time>
      </trkpt>
      <trkpt lat="43.41332" lon="5.50714">
        <ele>501.86</ele>
        <time>2022-05-13T08:12:46.598Z</time>
      </trkpt>
      <trkpt lat="43.41322" lon="5.50735">
        <ele>501.33</ele>
        <time>2022-05-13T08:13:02.202Z</time>
      </trkpt>
      <trkpt lat="43.41317" lon="5.50759">
        <ele>502.05</ele>
        <time>2022-05-13T08:13:19.000Z</time>
      </trkpt>
      <trkpt lat="43.4131" lon="5.50783">
        <ele>504.05</ele>
        <time>2022-05-13T08:13:35.057Z</time>
      </trkpt>
      <trkpt lat="43.41304" lon="5.50806">
        <ele>506.81</ele>
        <time>2022-05-13T08:13:49.000Z</time>
      </trkpt>
      <trkpt lat="43.41293" lon="5.50827">
        <ele>510.38</ele>
        <time>2022-05-13T08:14:06.938Z</time>
      </trkpt>
      <trkpt lat="43.41285" lon="5.50849">
        <ele>514.12</ele>
        <time>2022-05-13T08:14:27.638Z</time>
      </trkpt>
      <trkpt lat="43.41277" lon="5.50872">
        <ele>518.53</ele>
        <time>2022-05-13T08:14:41.000Z</time>
      </trkpt>
      <trkpt lat="43.41269" lon="5.50894">
        <ele>523.53</ele>
        <time>2022-05-13T08:14:56.116Z</time>
      </trkpt>
      <trkpt lat="43.41262" lon="5.50917">
        <ele>527.27</ele>
        <time>2022-05-13T08:15:12.000Z</time>
      </trkpt>
      <trkpt lat="43.41247" lon="5.50932">
        <ele>528.81</ele>
        <time>2022-05-13T08:15:29.080Z</time>
      </trkpt>
      <trkpt lat="43.41235" lon="5.50951">
        <ele>526.64</ele>
        <time>2022-05-13T08:15:44.678Z</time>
      </trkpt>
      <trkpt lat="43.41221" lon="5.50967">
        <ele>524.52</ele>
        <time>2022-05-13T08:15:59.939Z</time>
      </trkpt>
      <trkpt lat="43.41206" lon="5.50983">
        <ele>524.57</ele>
        <time>2022-05-13T08:16:16.398Z</time>
      </trkpt>
      <trkpt lat="43.41193" lon="5.51002">
        <ele>527.41</ele>
        <time>2022-05-13T08:16:29.677Z</time>
      </trkpt>
      <trkpt lat="43.41181" lon="5.5102">
        <ele>531.85</ele>
        <time>2022-05-13T08:16:42.558Z</time>
      </trkpt>
      <trkpt lat="43.41176" lon="5.51044">
        <ele>536.29</ele>
        <time>2022-05-13T08:16:58.399Z</time>
      </trkpt>
      <trkpt lat="43.41168" lon="5.51068">
        <ele>540.34</ele>
        <time>2022-05-13T08:17:18.060Z</time>
      </trkpt>
      <trkpt lat="43.41164" lon="5.51094">
        <ele>543.01</ele>
        <time>2022-05-13T08:17:35.019Z</time>
      </trkpt>
      <trkpt lat="43.41159" lon="5.51118">
        <ele>544.2</ele>
        <time>2022-05-13T08:17:52.253Z</time>
      </trkpt>
      <trkpt lat="43.41153" lon="5.51141">
        <ele>545.52</ele>
        <time>2022-05-13T08:18:03.018Z</time>
      </trkpt>
      <trkpt lat="43.41145" lon="5.51164">
        <ele>548.01</ele>
        <time>2022-05-13T08:18:21.459Z</time>
      </trkpt>
      <trkpt lat="43.41138" lon="5.51187">
        <ele>551.53</ele>
        <time>2022-05-13T08:18:38.978Z</time>
      </trkpt>
      <trkpt lat="43.41134" lon="5.51212">
        <ele>554.56</ele>
        <time>2022-05-13T08:18:52.678Z</time>
      </trkpt>
      <trkpt lat="43.4113" lon="5.51238">
        <ele>558.29</ele>
        <time>2022-05-13T08:19:10.958Z</time>
      </trkpt>
      <trkpt lat="43.41124" lon="5.51261">
        <ele>563.43</ele>
        <time>2022-05-13T08:19:26.839Z</time>
      </trkpt>
      <trkpt lat="43.41119" lon="5.51286">
        <ele>569.15</ele>
        <time>2022-05-13T08:19:41.220Z</time>
      </trkpt>
      <trkpt lat="43.41119" lon="5.51311">
        <ele>573.42</ele>
        <time>2022-05-13T08:20:01.999Z</time>
      </trkpt>
      <trkpt lat="43.41122" lon="5.51336">
        <ele>575.88</ele>
        <time>2022-05-13T08:20:19.881Z</time>
      </trkpt>
      <trkpt lat="43.41123" lon="5.51362">
        <ele>577.72</ele>
        <time>2022-05-13T08:20:37.999Z</time>
      </trkpt>
      <trkpt lat="43.41107" lon="5.51374">
        <ele>577.76</ele>
        <time>2022-05-13T08:20:53.012Z</time>
      </trkpt>
      <trkpt lat="43.41088" lon="5.51373">
        <ele>578.81</ele>
        <time>2022-05-13T08:21:17.102Z</time>
      </trkpt>
      <trkpt lat="43.4107" lon="5.51376">
        <ele>581.52</ele>
        <time>2022-05-13T08:21:35.992Z</time>
      </trkpt>
      <trkpt lat="43.41053" lon="5.51367">
        <ele>586.99</ele>
        <time>2022-05-13T08:21:57.273Z</time>
      </trkpt>
      <trkpt lat="43.41047" lon="5.51343">
        <ele>590.76</ele>
        <time>2022-05-13T08:22:26.999Z</time>
      </trkpt>
      <trkpt lat="43.41039" lon="5.51319">
        <ele>594.28</ele>
        <time>2022-05-13T08:22:47.295Z</time>
      </trkpt>
      <trkpt lat="43.4103" lon="5.51297">
        <ele>597.65</ele>
        <time>2022-05-13T08:22:56.357Z</time>
      </trkpt>
      <trkpt lat="43.41021" lon="5.51275">
        <ele>601.12</ele>
        <time>2022-05-13T08:23:16.597Z</time>
      </trkpt>
      <trkpt lat="43.41015" lon="5.51252">
        <ele>603.49</ele>
        <time>2022-05-13T08:23:28.999Z</time>
      </trkpt>
      <trkpt lat="43.41002" lon="5.51235">
        <ele>609.68</ele>
        <time>2022-05-13T08:23:54.518Z</time>
      </trkpt>
      <trkpt lat="43.40993" lon="5.51212">
        <ele>613.87</ele>
        <time>2022-05-13T08:24:16.836Z</time>
      </trkpt>
      <trkpt lat="43.40984" lon="5.5119">
        <ele>620.02</ele>
        <time>2022-05-13T08:24:40.075Z</time>
      </trkpt>
      <trkpt lat="43.40974" lon="5.51169">
        <ele>627.4</ele>
        <time>2022-05-13T08:24:57.980Z</time>
      </trkpt>
      <trkpt lat="43.40963" lon="5.51149">
        <ele>636.5</ele>
        <time>2022-05-13T08:25:19.736Z</time>
      </trkpt>
      <trkpt lat="43.40953" lon="5.51127">
        <ele>643.19</ele>
        <time>2022-05-13T08:25:40.959Z</time>
      </trkpt>
      <trkpt lat="43.40955" lon="5.51102">
        <ele>636.92</ele>
        <time>2022-05-13T08:26:05.898Z</time>
      </trkpt>
      <trkpt lat="43.40956" lon="5.51077">
        <ele>632.04</ele>
        <time>2022-05-13T08:26:35.253Z</time>
      </trkpt>
      <trkpt lat="43.40961" lon="5.51053">
        <ele>622.44</ele>
        <time>2022-05-13T08:26:52.000Z</time>
      </trkpt>
      <trkpt lat="43.40943" lon="5.5105">
        <ele>640.37</ele>
        <time>2022-05-13T08:29:29.000Z</time>
      </trkpt>
      <trkpt lat="43.40927" lon="5.51036">
        <ele>651.27</ele>
        <time>2022-05-13T08:29:50.231Z</time>
      </trkpt>
      <trkpt lat="43.40911" lon="5.51026">
        <ele>660.13</ele>
        <time>2022-05-13T08:30:25.919Z</time>
      </trkpt>
      <trkpt lat="43.40895" lon="5.51008">
        <ele>663.74</ele>
        <time>2022-05-13T08:30:50.033Z</time>
      </trkpt>
      <trkpt lat="43.40877" lon="5.50998">
        <ele>667.66</ele>
        <time>2022-05-13T08:31:01.255Z</time>
      </trkpt>
      <trkpt lat="43.40859" lon="5.50991">
        <ele>671</ele>
        <time>2022-05-13T08:31:22.214Z</time>
      </trkpt>
      <trkpt lat="43.40841" lon="5.50986">
        <ele>674.85</ele>
        <time>2022-05-13T08:31:37.655Z</time>
      </trkpt>
      <trkpt lat="43.40823" lon="5.50983">
        <ele>680.6</ele>
        <time>2022-05-13T08:31:54.134Z</time>
      </trkpt>
      <trkpt lat="43.40805" lon="5.50976">
        <ele>687.18</ele>
        <time>2022-05-13T08:32:11.455Z</time>
      </trkpt>
      <trkpt lat="43.40798" lon="5.50952">
        <ele>683.97</ele>
        <time>2022-05-13T08:32:30.977Z</time>
      </trkpt>
      <trkpt lat="43.40785" lon="5.50935">
        <ele>687.26</ele>
        <time>2022-05-13T08:32:51.056Z</time>
      </trkpt>
      <trkpt lat="43.40773" lon="5.50915">
        <ele>687.9</ele>
        <time>2022-05-13T08:33:11.915Z</time>
      </trkpt>
      <trkpt lat="43.40763" lon="5.50937">
        <ele>697.13</ele>
        <time>2022-05-13T08:33:42.137Z</time>
      </trkpt>
      <trkpt lat="43.40753" lon="5.50957">
        <ele>703.91</ele>
        <time>2022-05-13T08:34:08.598Z</time>
      </trkpt>
      <trkpt lat="43.40749" lon="5.50982">
        <ele>709.54</ele>
        <time>2022-05-13T08:34:34.204Z</time>
      </trkpt>
      <trkpt lat="43.40744" lon="5.51006">
        <ele>715.73</ele>
        <time>2022-05-13T08:35:07.762Z</time>
      </trkpt>
      <trkpt lat="43.40737" lon="5.51029">
        <ele>722.17</ele>
        <time>2022-05-13T08:35:41.020Z</time>
      </trkpt>
      <trkpt lat="43.40733" lon="5.51054">
        <ele>729.53</ele>
        <time>2022-05-13T08:36:30.999Z</time>
      </trkpt>
      <trkpt lat="43.4073" lon="5.51078">
        <ele>736.76</ele>
        <time>2022-05-13T08:36:57.999Z</time>
      </trkpt>
      <trkpt lat="43.40733" lon="5.51103">
        <ele>744.89</ele>
        <time>2022-05-13T08:40:21.160Z</time>
      </trkpt>
      <trkpt lat="43.40747" lon="5.51121">
        <ele>750.79</ele>
        <time>2022-05-13T08:40:35.119Z</time>
      </trkpt>
      <trkpt lat="43.40762" lon="5.51136">
        <ele>752.62</ele>
        <time>2022-05-13T08:40:51.971Z</time>
      </trkpt>
      <trkpt lat="43.40772" lon="5.51158">
        <ele>753.72</ele>
        <time>2022-05-13T08:41:19.112Z</time>
      </trkpt>
      <trkpt lat="43.40778" lon="5.51181">
        <ele>752.92</ele>
        <time>2022-05-13T08:41:34.476Z</time>
      </trkpt>
      <trkpt lat="43.4078" lon="5.51206">
        <ele>751.49</ele>
        <time>2022-05-13T08:41:48.991Z</time>
      </trkpt>
      <trkpt lat="43.4077" lon="5.51229">
        <ele>752.87</ele>
        <time>2022-05-13T08:42:04.992Z</time>
      </trkpt>
      <trkpt lat="43.40753" lon="5.5124">
        <ele>757.11</ele>
        <time>2022-05-13T08:42:24.013Z</time>
      </trkpt>
      <trkpt lat="43.40739" lon="5.51256">
        <ele>759.86</ele>
        <time>2022-05-13T08:42:42.793Z</time>
      </trkpt>
      <trkpt lat="43.40726" lon="5.51275">
        <ele>761.66</ele>
        <time>2022-05-13T08:42:57.932Z</time>
      </trkpt>
      <trkpt lat="43.4071" lon="5.51287">
        <ele>764.12</ele>
        <time>2022-05-13T08:43:17.010Z</time>
      </trkpt>
      <trkpt lat="43.40693" lon="5.51294">
        <ele>766.3</ele>
        <time>2022-05-13T08:43:36.000Z</time>
      </trkpt>
      <trkpt lat="43.40706" lon="5.51276">
        <ele>767.75</ele>
        <time>2022-05-13T08:43:53.812Z</time>
      </trkpt>
      <trkpt lat="43.40717" lon="5.51258">
        <ele>767.05</ele>
        <time>2022-05-13T08:44:07.913Z</time>
      </trkpt>
      <trkpt lat="43.40724" lon="5.51234">
        <ele>766.52</ele>
        <time>2022-05-13T08:44:25.000Z</time>
      </trkpt>
      <trkpt lat="43.40724" lon="5.51208">
        <ele>766.08</ele>
        <time>2022-05-13T08:44:45.092Z</time>
      </trkpt>
      <trkpt lat="43.40706" lon="5.51213">
        <ele>768.26</ele>
        <time>2022-05-13T08:45:03.374Z</time>
      </trkpt>
      <trkpt lat="43.40691" lon="5.5123">
        <ele>772.61</ele>
        <time>2022-05-13T08:45:24.034Z</time>
      </trkpt>
      <trkpt lat="43.40675" lon="5.51242">
        <ele>775.9</ele>
        <time>2022-05-13T08:45:44.764Z</time>
      </trkpt>
      <trkpt lat="43.40672" lon="5.51267">
        <ele>775.82</ele>
        <time>2022-05-13T08:48:31.571Z</time>
      </trkpt>
      <trkpt lat="43.40679" lon="5.5129">
        <ele>769.82</ele>
        <time>2022-05-13T08:48:55.815Z</time>
      </trkpt>
      <trkpt lat="43.40681" lon="5.51315">
        <ele>761.77</ele>
        <time>2022-05-13T08:49:57.134Z</time>
      </trkpt>
      <trkpt lat="43.40672" lon="5.51337">
        <ele>756.48</ele>
        <time>2022-05-13T08:50:19.732Z</time>
      </trkpt>
      <trkpt lat="43.40668" lon="5.51361">
        <ele>750.24</ele>
        <time>2022-05-13T08:50:50.113Z</time>
      </trkpt>
      <trkpt lat="43.40669" lon="5.51387">
        <ele>742.47</ele>
        <time>2022-05-13T08:51:11.115Z</time>
      </trkpt>
      <trkpt lat="43.40662" lon="5.51411">
        <ele>735.76</ele>
        <time>2022-05-13T08:52:01.954Z</time>
      </trkpt>
      <trkpt lat="43.40679" lon="5.51422">
        <ele>731.03</ele>
        <time>2022-05-13T08:52:35.999Z</time>
      </trkpt>
      <trkpt lat="43.40679" lon="5.51446">
        <ele>723.88</ele>
        <time>2022-05-13T08:52:52.978Z</time>
      </trkpt>
      <trkpt lat="43.40678" lon="5.51471">
        <ele>717.18</ele>
        <time>2022-05-13T08:53:11.871Z</time>
      </trkpt>
      <trkpt lat="43.40685" lon="5.51494">
        <ele>708.43</ele>
        <time>2022-05-13T08:53:41.771Z</time>
      </trkpt>
      <trkpt lat="43.4069" lon="5.51519">
        <ele>700.07</ele>
        <time>2022-05-13T08:53:59.431Z</time>
      </trkpt>
      <trkpt lat="43.40687" lon="5.51544">
        <ele>694.41</ele>
        <time>2022-05-13T08:54:22.834Z</time>
      </trkpt>
      <trkpt lat="43.40671" lon="5.51554">
        <ele>694.33</ele>
        <time>2022-05-13T08:55:55.521Z</time>
      </trkpt>
      <trkpt lat="43.40656" lon="5.51539">
        <ele>697.5</ele>
        <time>2022-05-13T08:56:09.881Z</time>
      </trkpt>
      <trkpt lat="43.4064" lon="5.51524">
        <ele>697.4</ele>
        <time>2022-05-13T08:56:24.999Z</time>
      </trkpt>
      <trkpt lat="43.40625" lon="5.5151">
        <ele>695.4</ele>
        <time>2022-05-13T08:56:40.193Z</time>
      </trkpt>
      <trkpt lat="43.40609" lon="5.51497">
        <ele>692.81</ele>
        <time>2022-05-13T08:56:55.616Z</time>
      </trkpt>
      <trkpt lat="43.40599" lon="5.51475">
        <ele>697.34</ele>
        <time>2022-05-13T08:57:10.856Z</time>
      </trkpt>
      <trkpt lat="43.40586" lon="5.51458">
        <ele>701.66</ele>
        <time>2022-05-13T08:57:25.455Z</time>
      </trkpt>
      <trkpt lat="43.40572" lon="5.5144">
        <ele>708.27</ele>
        <time>2022-05-13T08:57:40.816Z</time>
      </trkpt>
      <trkpt lat="43.40556" lon="5.51429">
        <ele>713.27</ele>
        <time>2022-05-13T08:57:53.098Z</time>
      </trkpt>
      <trkpt lat="43.40538" lon="5.51435">
        <ele>711.65</ele>
        <time>2022-05-13T08:58:05.897Z</time>
      </trkpt>
      <trkpt lat="43.40524" lon="5.51451">
        <ele>706.18</ele>
        <time>2022-05-13T08:58:17.519Z</time>
      </trkpt>
      <trkpt lat="43.40512" lon="5.5147">
        <ele>700.97</ele>
        <time>2022-05-13T08:58:31.676Z</time>
      </trkpt>
      <trkpt lat="43.40502" lon="5.51491">
        <ele>695.84</ele>
        <time>2022-05-13T08:58:46.178Z</time>
      </trkpt>
      <trkpt lat="43.40491" lon="5.51511">
        <ele>692.43</ele>
        <time>2022-05-13T08:59:00.000Z</time>
      </trkpt>
      <trkpt lat="43.40478" lon="5.51529">
        <ele>694.2</ele>
        <time>2022-05-13T08:59:15.400Z</time>
      </trkpt>
      <trkpt lat="43.40465" lon="5.51547">
        <ele>698.13</ele>
        <time>2022-05-13T08:59:28.579Z</time>
      </trkpt>
      <trkpt lat="43.40455" lon="5.51569">
        <ele>701.04</ele>
        <time>2022-05-13T08:59:43.777Z</time>
      </trkpt>
      <trkpt lat="43.40445" lon="5.5159">
        <ele>703.12</ele>
        <time>2022-05-13T08:59:56.777Z</time>
      </trkpt>
      <trkpt lat="43.40436" lon="5.51612">
        <ele>702.49</ele>
        <time>2022-05-13T09:00:12.852Z</time>
      </trkpt>
      <trkpt lat="43.4043" lon="5.51636">
        <ele>697.43</ele>
        <time>2022-05-13T09:00:24.948Z</time>
      </trkpt>
      <trkpt lat="43.40426" lon="5.5166">
        <ele>691.24</ele>
        <time>2022-05-13T09:00:38.920Z</time>
      </trkpt>
      <trkpt lat="43.40417" lon="5.51683">
        <ele>687.56</ele>
        <time>2022-05-13T09:00:53.999Z</time>
      </trkpt>
      <trkpt lat="43.40409" lon="5.51705">
        <ele>683.25</ele>
        <time>2022-05-13T09:01:07.778Z</time>
      </trkpt>
      <trkpt lat="43.40395" lon="5.51723">
        <ele>680.98</ele>
        <time>2022-05-13T09:01:23.498Z</time>
      </trkpt>
      <trkpt lat="43.40377" lon="5.51732">
        <ele>680.22</ele>
        <time>2022-05-13T09:01:38.982Z</time>
      </trkpt>
      <trkpt lat="43.40367" lon="5.51754">
        <ele>678.37</ele>
        <time>2022-05-13T09:01:52.678Z</time>
      </trkpt>
      <trkpt lat="43.40359" lon="5.51776">
        <ele>678.92</ele>
        <time>2022-05-13T09:02:08.859Z</time>
      </trkpt>
      <trkpt lat="43.40346" lon="5.51793">
        <ele>682.08</ele>
        <time>2022-05-13T09:02:25.025Z</time>
      </trkpt>
      <trkpt lat="43.40328" lon="5.51803">
        <ele>684.28</ele>
        <time>2022-05-13T09:02:40.769Z</time>
      </trkpt>
      <trkpt lat="43.40311" lon="5.51814">
        <ele>683.02</ele>
        <time>2022-05-13T09:02:52.939Z</time>
      </trkpt>
      <trkpt lat="43.40297" lon="5.51798">
        <ele>676.06</ele>
        <time>2022-05-13T09:03:31.180Z</time>
      </trkpt>
      <trkpt lat="43.4028" lon="5.51809">
        <ele>670.92</ele>
        <time>2022-05-13T09:05:53.757Z</time>
      </trkpt>
      <trkpt lat="43.40264" lon="5.5182">
        <ele>665.97</ele>
        <time>2022-05-13T09:06:46.836Z</time>
      </trkpt>
      <trkpt lat="43.40245" lon="5.51821">
        <ele>661.39</ele>
        <time>2022-05-13T09:07:04.999Z</time>
      </trkpt>
      <trkpt lat="43.40229" lon="5.51833">
        <ele>660.04</ele>
        <time>2022-05-13T09:07:53.477Z</time>
      </trkpt>
      <trkpt lat="43.40211" lon="5.51832">
        <ele>658.5</ele>
        <time>2022-05-13T09:08:18.540Z</time>
      </trkpt>
      <trkpt lat="43.40193" lon="5.51837">
        <ele>657.89</ele>
        <time>2022-05-13T09:08:32.920Z</time>
      </trkpt>
      <trkpt lat="43.40175" lon="5.51836">
        <ele>656.87</ele>
        <time>2022-05-13T09:08:48.540Z</time>
      </trkpt>
      <trkpt lat="43.40156" lon="5.51838">
        <ele>655.63</ele>
        <time>2022-05-13T09:09:20.097Z</time>
      </trkpt>
      <trkpt lat="43.40137" lon="5.5184">
        <ele>654.76</ele>
        <time>2022-05-13T09:09:30.218Z</time>
      </trkpt>
      <trkpt lat="43.40119" lon="5.51846">
        <ele>653.56</ele>
        <time>2022-05-13T09:09:42.617Z</time>
      </trkpt>
      <trkpt lat="43.40101" lon="5.51843">
        <ele>652.07</ele>
        <time>2022-05-13T09:09:59.819Z</time>
      </trkpt>
      <trkpt lat="43.40083" lon="5.51841">
        <ele>649.29</ele>
        <time>2022-05-13T09:10:51.660Z</time>
      </trkpt>
      <trkpt lat="43.40065" lon="5.51842">
        <ele>645.13</ele>
        <time>2022-05-13T09:11:18.103Z</time>
      </trkpt>
      <trkpt lat="43.40046" lon="5.51839">
        <ele>639.71</ele>
        <time>2022-05-13T09:11:38.418Z</time>
      </trkpt>
      <trkpt lat="43.40027" lon="5.51834">
        <ele>633.04</ele>
        <time>2022-05-13T09:12:18.999Z</time>
      </trkpt>
      <trkpt lat="43.40011" lon="5.51847">
        <ele>628.41</ele>
        <time>2022-05-13T09:12:42.159Z</time>
      </trkpt>
      <trkpt lat="43.39996" lon="5.51861">
        <ele>622.55</ele>
        <time>2022-05-13T09:13:07.661Z</time>
      </trkpt>
      <trkpt lat="43.39977" lon="5.51852">
        <ele>616.26</ele>
        <time>2022-05-13T09:13:22.919Z</time>
      </trkpt>
      <trkpt lat="43.39959" lon="5.51856">
        <ele>608.66</ele>
        <time>2022-05-13T09:13:59.779Z</time>
      </trkpt>
      <trkpt lat="43.39948" lon="5.51837">
        <ele>606.13</ele>
        <time>2022-05-13T09:14:23.999Z</time>
      </trkpt>
      <trkpt lat="43.39947" lon="5.51812">
        <ele>602.12</ele>
        <time>2022-05-13T09:14:50.510Z</time>
      </trkpt>
      <trkpt lat="43.39957" lon="5.51791">
        <ele>597.6</ele>
        <time>2022-05-13T09:15:06.062Z</time>
      </trkpt>
      <trkpt lat="43.39971" lon="5.51773">
        <ele>594.31</ele>
        <time>2022-05-13T09:15:43.000Z</time>
      </trkpt>
      <trkpt lat="43.39984" lon="5.51755">
        <ele>590.86</ele>
        <time>2022-05-13T09:15:58.780Z</time>
      </trkpt>
      <trkpt lat="43.39999" lon="5.51739">
        <ele>588.86</ele>
        <time>2022-05-13T09:16:13.761Z</time>
      </trkpt>
      <trkpt lat="43.40018" lon="5.51739">
        <ele>591.99</ele>
        <time>2022-05-13T09:16:28.212Z</time>
      </trkpt>
      <trkpt lat="43.40032" lon="5.51722">
        <ele>587.56</ele>
        <time>2022-05-13T09:16:38.811Z</time>
      </trkpt>
      <trkpt lat="43.40048" lon="5.51712">
        <ele>585.41</ele>
        <time>2022-05-13T09:16:56.229Z</time>
      </trkpt>
      <trkpt lat="43.40064" lon="5.517">
        <ele>582.39</ele>
        <time>2022-05-13T09:17:10.760Z</time>
      </trkpt>
      <trkpt lat="43.40082" lon="5.51691">
        <ele>580.86</ele>
        <time>2022-05-13T09:17:24.001Z</time>
      </trkpt>
      <trkpt lat="43.401" lon="5.51687">
        <ele>580.77</ele>
        <time>2022-05-13T09:17:37.664Z</time>
      </trkpt>
      <trkpt lat="43.40118" lon="5.51678">
        <ele>578.98</ele>
        <time>2022-05-13T09:17:53.072Z</time>
      </trkpt>
      <trkpt lat="43.40135" lon="5.5167">
        <ele>578.58</ele>
        <time>2022-05-13T09:18:07.354Z</time>
      </trkpt>
      <trkpt lat="43.40147" lon="5.51652">
        <ele>575.05</ele>
        <time>2022-05-13T09:18:19.891Z</time>
      </trkpt>
      <trkpt lat="43.40161" lon="5.51633">
        <ele>573.49</ele>
        <time>2022-05-13T09:18:33.952Z</time>
      </trkpt>
      <trkpt lat="43.40172" lon="5.51612">
        <ele>572.27</ele>
        <time>2022-05-13T09:18:49.615Z</time>
      </trkpt>
      <trkpt lat="43.40177" lon="5.51588">
        <ele>570.37</ele>
        <time>2022-05-13T09:19:03.153Z</time>
      </trkpt>
      <trkpt lat="43.40179" lon="5.51563">
        <ele>569.52</ele>
        <time>2022-05-13T09:19:17.793Z</time>
      </trkpt>
      <trkpt lat="43.40173" lon="5.51538">
        <ele>566.94</ele>
        <time>2022-05-13T09:19:30.075Z</time>
      </trkpt>
      <trkpt lat="43.40165" lon="5.51515">
        <ele>563.56</ele>
        <time>2022-05-13T09:19:45.893Z</time>
      </trkpt>
      <trkpt lat="43.40155" lon="5.51495">
        <ele>559.1</ele>
        <time>2022-05-13T09:19:58.454Z</time>
      </trkpt>
      <trkpt lat="43.40146" lon="5.51472">
        <ele>557.6</ele>
        <time>2022-05-13T09:20:12.859Z</time>
      </trkpt>
      <trkpt lat="43.40147" lon="5.51446">
        <ele>562.11</ele>
        <time>2022-05-13T09:20:26.974Z</time>
      </trkpt>
      <trkpt lat="43.4014" lon="5.51423">
        <ele>561.58</ele>
        <time>2022-05-13T09:20:41.763Z</time>
      </trkpt>
      <trkpt lat="43.40129" lon="5.51402">
        <ele>556.96</ele>
        <time>2022-05-13T09:20:55.034Z</time>
      </trkpt>
      <trkpt lat="43.40116" lon="5.51385">
        <ele>553.26</ele>
        <time>2022-05-13T09:21:12.729Z</time>
      </trkpt>
      <trkpt lat="43.40098" lon="5.51387">
        <ele>547.28</ele>
        <time>2022-05-13T09:21:26.096Z</time>
      </trkpt>
      <trkpt lat="43.40081" lon="5.51377">
        <ele>544.61</ele>
        <time>2022-05-13T09:21:39.432Z</time>
      </trkpt>
      <trkpt lat="43.40072" lon="5.51354">
        <ele>548.36</ele>
        <time>2022-05-13T09:21:52.334Z</time>
      </trkpt>
      <trkpt lat="43.40063" lon="5.51332">
        <ele>549.73</ele>
        <time>2022-05-13T09:22:06.232Z</time>
      </trkpt>
      <trkpt lat="43.40049" lon="5.51316">
        <ele>546.6</ele>
        <time>2022-05-13T09:22:20.993Z</time>
      </trkpt>
      <trkpt lat="43.40031" lon="5.5131">
        <ele>541.39</ele>
        <time>2022-05-13T09:22:35.373Z</time>
      </trkpt>
      <trkpt lat="43.40012" lon="5.51305">
        <ele>536.64</ele>
        <time>2022-05-13T09:22:50.871Z</time>
      </trkpt>
      <trkpt lat="43.39995" lon="5.51296">
        <ele>533.77</ele>
        <time>2022-05-13T09:23:07.073Z</time>
      </trkpt>
      <trkpt lat="43.39986" lon="5.51274">
        <ele>535.45</ele>
        <time>2022-05-13T09:23:21.153Z</time>
      </trkpt>
      <trkpt lat="43.39981" lon="5.51249">
        <ele>537.73</ele>
        <time>2022-05-13T09:23:36.999Z</time>
      </trkpt>
      <trkpt lat="43.39969" lon="5.5123">
        <ele>536.29</ele>
        <time>2022-05-13T09:23:52.298Z</time>
      </trkpt>
      <trkpt lat="43.39958" lon="5.5121">
        <ele>535.81</ele>
        <time>2022-05-13T09:24:06.614Z</time>
      </trkpt>
      <trkpt lat="43.39944" lon="5.51192">
        <ele>533.61</ele>
        <time>2022-05-13T09:24:21.872Z</time>
      </trkpt>
      <trkpt lat="43.39931" lon="5.51174">
        <ele>531.9</ele>
        <time>2022-05-13T09:24:35.694Z</time>
      </trkpt>
      <trkpt lat="43.39914" lon="5.51166">
        <ele>528.68</ele>
        <time>2022-05-13T09:24:50.575Z</time>
      </trkpt>
      <trkpt lat="43.39896" lon="5.51169">
        <ele>524.43</ele>
        <time>2022-05-13T09:25:03.556Z</time>
      </trkpt>
      <trkpt lat="43.39878" lon="5.51166">
        <ele>522.98</ele>
        <time>2022-05-13T09:25:17.999Z</time>
      </trkpt>
      <trkpt lat="43.39871" lon="5.51143">
        <ele>526.73</ele>
        <time>2022-05-13T09:25:30.496Z</time>
      </trkpt>
      <trkpt lat="43.39865" lon="5.5112">
        <ele>529.24</ele>
        <time>2022-05-13T09:25:43.676Z</time>
      </trkpt>
      <trkpt lat="43.39858" lon="5.51096">
        <ele>528.72</ele>
        <time>2022-05-13T09:25:57.255Z</time>
      </trkpt>
      <trkpt lat="43.39855" lon="5.51072">
        <ele>527.92</ele>
        <time>2022-05-13T09:26:09.975Z</time>
      </trkpt>
      <trkpt lat="43.39848" lon="5.51048">
        <ele>526.52</ele>
        <time>2022-05-13T09:26:25.999Z</time>
      </trkpt>
      <trkpt lat="43.39844" lon="5.51023">
        <ele>526.63</ele>
        <time>2022-05-13T09:26:39.514Z</time>
      </trkpt>
      <trkpt lat="43.39834" lon="5.51002">
        <ele>524.28</ele>
        <time>2022-05-13T09:26:52.814Z</time>
      </trkpt>
      <trkpt lat="43.39821" lon="5.50985">
        <ele>520.38</ele>
        <time>2022-05-13T09:27:05.654Z</time>
      </trkpt>
      <trkpt lat="43.3981" lon="5.50965">
        <ele>516.22</ele>
        <time>2022-05-13T09:27:18.893Z</time>
      </trkpt>
      <trkpt lat="43.39793" lon="5.50955">
        <ele>514.52</ele>
        <time>2022-05-13T09:27:34.514Z</time>
      </trkpt>
      <trkpt lat="43.39778" lon="5.5094">
        <ele>514.26</ele>
        <time>2022-05-13T09:27:48.312Z</time>
      </trkpt>
      <trkpt lat="43.39766" lon="5.50922">
        <ele>515.16</ele>
        <time>2022-05-13T09:28:02.554Z</time>
      </trkpt>
      <trkpt lat="43.39757" lon="5.50899">
        <ele>516</ele>
        <time>2022-05-13T09:28:16.893Z</time>
      </trkpt>
      <trkpt lat="43.39747" lon="5.50878">
        <ele>516.53</ele>
        <time>2022-05-13T09:28:30.214Z</time>
      </trkpt>
      <trkpt lat="43.39734" lon="5.5086">
        <ele>516.83</ele>
        <time>2022-05-13T09:28:43.875Z</time>
      </trkpt>
      <trkpt lat="43.39722" lon="5.5084">
        <ele>517.99</ele>
        <time>2022-05-13T09:28:58.999Z</time>
      </trkpt>
      <trkpt lat="43.39704" lon="5.50834">
        <ele>519.54</ele>
        <time>2022-05-13T09:29:20.917Z</time>
      </trkpt>
      <trkpt lat="43.39686" lon="5.50834">
        <ele>520.45</ele>
        <time>2022-05-13T09:29:33.836Z</time>
      </trkpt>
      <trkpt lat="43.39668" lon="5.5084">
        <ele>519.96</ele>
        <time>2022-05-13T09:29:50.896Z</time>
      </trkpt>
      <trkpt lat="43.39651" lon="5.50849">
        <ele>518.41</ele>
        <time>2022-05-13T09:30:08.056Z</time>
      </trkpt>
      <trkpt lat="43.39632" lon="5.50853">
        <ele>520.36</ele>
        <time>2022-05-13T09:30:25.999Z</time>
      </trkpt>
      <trkpt lat="43.39615" lon="5.5086">
        <ele>521.05</ele>
        <time>2022-05-13T09:30:42.458Z</time>
      </trkpt>
      <trkpt lat="43.39596" lon="5.50861">
        <ele>522.78</ele>
        <time>2022-05-13T09:30:58.618Z</time>
      </trkpt>
      <trkpt lat="43.3958" lon="5.50851">
        <ele>525.12</ele>
        <time>2022-05-13T09:31:13.098Z</time>
      </trkpt>
      <trkpt lat="43.39562" lon="5.50843">
        <ele>523.07</ele>
        <time>2022-05-13T09:31:29.397Z</time>
      </trkpt>
      <trkpt lat="43.39546" lon="5.50831">
        <ele>520.77</ele>
        <time>2022-05-13T09:31:45.143Z</time>
      </trkpt>
      <trkpt lat="43.39531" lon="5.50816">
        <ele>518.6</ele>
        <time>2022-05-13T09:32:02.255Z</time>
      </trkpt>
      <trkpt lat="43.39516" lon="5.50801">
        <ele>517.19</ele>
        <time>2022-05-13T09:32:21.434Z</time>
      </trkpt>
      <trkpt lat="43.39501" lon="5.50786">
        <ele>516.39</ele>
        <time>2022-05-13T09:32:36.157Z</time>
      </trkpt>
      <trkpt lat="43.39486" lon="5.50771">
        <ele>515.39</ele>
        <time>2022-05-13T09:32:55.117Z</time>
      </trkpt>
      <trkpt lat="43.39472" lon="5.50756">
        <ele>514.02</ele>
        <time>2022-05-13T09:33:21.179Z</time>
      </trkpt>
      <trkpt lat="43.39456" lon="5.50741">
        <ele>512.18</ele>
        <time>2022-05-13T09:33:37.356Z</time>
      </trkpt>
      <trkpt lat="43.39439" lon="5.50736">
        <ele>508.94</ele>
        <time>2022-05-13T09:33:56.377Z</time>
      </trkpt>
      <trkpt lat="43.39421" lon="5.50744">
        <ele>501.59</ele>
        <time>2022-05-13T09:34:14.517Z</time>
      </trkpt>
      <trkpt lat="43.39406" lon="5.50758">
        <ele>491.38</ele>
        <time>2022-05-13T09:34:28.477Z</time>
      </trkpt>
      <trkpt lat="43.39391" lon="5.50744">
        <ele>490.6</ele>
        <time>2022-05-13T09:34:48.062Z</time>
      </trkpt>
      <trkpt lat="43.39373" lon="5.50733">
        <ele>489.43</ele>
        <time>2022-05-13T09:35:06.917Z</time>
      </trkpt>
      <trkpt lat="43.39358" lon="5.50719">
        <ele>491.39</ele>
        <time>2022-05-13T09:35:21.937Z</time>
      </trkpt>
      <trkpt lat="43.39345" lon="5.507">
        <ele>496.82</ele>
        <time>2022-05-13T09:35:38.000Z</time>
      </trkpt>
      <trkpt lat="43.39332" lon="5.50684">
        <ele>498.65</ele>
        <time>2022-05-13T09:35:54.215Z</time>
      </trkpt>
      <trkpt lat="43.3932" lon="5.50665">
        <ele>498.73</ele>
        <time>2022-05-13T09:36:11.769Z</time>
      </trkpt>
      <trkpt lat="43.39314" lon="5.50641">
        <ele>500.36</ele>
        <time>2022-05-13T09:36:37.138Z</time>
      </trkpt>
      <trkpt lat="43.393" lon="5.50625">
        <ele>494.78</ele>
        <time>2022-05-13T09:36:52.768Z</time>
      </trkpt>
      <trkpt lat="43.39287" lon="5.50608">
        <ele>492</ele>
        <time>2022-05-13T09:37:08.060Z</time>
      </trkpt>
      <trkpt lat="43.39273" lon="5.50592">
        <ele>489.86</ele>
        <time>2022-05-13T09:37:24.218Z</time>
      </trkpt>
      <trkpt lat="43.39254" lon="5.5059">
        <ele>483.89</ele>
        <time>2022-05-13T09:37:38.513Z</time>
      </trkpt>
      <trkpt lat="43.39236" lon="5.5059">
        <ele>478.64</ele>
        <time>2022-05-13T09:38:01.214Z</time>
      </trkpt>
      <trkpt lat="43.39222" lon="5.50574">
        <ele>477.95</ele>
        <time>2022-05-13T09:38:18.474Z</time>
      </trkpt>
      <trkpt lat="43.39216" lon="5.5055">
        <ele>477.17</ele>
        <time>2022-05-13T09:38:36.213Z</time>
      </trkpt>
      <trkpt lat="43.39206" lon="5.50529">
        <ele>474.31</ele>
        <time>2022-05-13T09:39:02.234Z</time>
      </trkpt>
      <trkpt lat="43.39188" lon="5.50524">
        <ele>471.75</ele>
        <time>2022-05-13T09:39:32.034Z</time>
      </trkpt>
      <trkpt lat="43.39169" lon="5.5052">
        <ele>469.04</ele>
        <time>2022-05-13T09:39:42.854Z</time>
      </trkpt>
      <trkpt lat="43.39151" lon="5.50518">
        <ele>465.99</ele>
        <time>2022-05-13T09:39:51.553Z</time>
      </trkpt>
      <trkpt lat="43.39133" lon="5.50508">
        <ele>463.51</ele>
        <time>2022-05-13T09:40:04.795Z</time>
      </trkpt>
      <trkpt lat="43.39119" lon="5.50492">
        <ele>461.96</ele>
        <time>2022-05-13T09:40:20.575Z</time>
      </trkpt>
      <trkpt lat="43.39101" lon="5.50494">
        <ele>459.45</ele>
        <time>2022-05-13T09:40:35.035Z</time>
      </trkpt>
      <trkpt lat="43.39083" lon="5.50496">
        <ele>456.38</ele>
        <time>2022-05-13T09:40:56.056Z</time>
      </trkpt>
      <trkpt lat="43.39066" lon="5.50483">
        <ele>454.65</ele>
        <time>2022-05-13T09:41:10.955Z</time>
      </trkpt>
      <trkpt lat="43.39048" lon="5.5048">
        <ele>451.36</ele>
        <time>2022-05-13T09:41:22.956Z</time>
      </trkpt>
      <trkpt lat="43.3903" lon="5.50475">
        <ele>447.84</ele>
        <time>2022-05-13T09:41:47.935Z</time>
      </trkpt>
      <trkpt lat="43.39016" lon="5.50459">
        <ele>445.04</ele>
        <time>2022-05-13T09:42:03.215Z</time>
      </trkpt>
      <trkpt lat="43.38999" lon="5.50467">
        <ele>441.83</ele>
        <time>2022-05-13T09:42:20.536Z</time>
      </trkpt>
      <trkpt lat="43.38981" lon="5.50474">
        <ele>438.08</ele>
        <time>2022-05-13T09:42:34.836Z</time>
      </trkpt>
      <trkpt lat="43.38964" lon="5.50466">
        <ele>435.6</ele>
        <time>2022-05-13T09:42:49.077Z</time>
      </trkpt>
      <trkpt lat="43.3895" lon="5.5045">
        <ele>434.87</ele>
        <time>2022-05-13T09:43:03.816Z</time>
      </trkpt>
      <trkpt lat="43.38934" lon="5.50437">
        <ele>434.53</ele>
        <time>2022-05-13T09:43:16.636Z</time>
      </trkpt>
      <trkpt lat="43.38917" lon="5.50426">
        <ele>434.65</ele>
        <time>2022-05-13T09:43:31.037Z</time>
      </trkpt>
      <trkpt lat="43.38904" lon="5.50408">
        <ele>435.31</ele>
        <time>2022-05-13T09:43:47.235Z</time>
      </trkpt>
      <trkpt lat="43.3889" lon="5.50393">
        <ele>435.24</ele>
        <time>2022-05-13T09:44:26.915Z</time>
      </trkpt>
      <trkpt lat="43.38908" lon="5.50398">
        <ele>434.35</ele>
        <time>2022-05-13T09:45:46.516Z</time>
      </trkpt>
      <trkpt lat="43.38924" lon="5.50387">
        <ele>432.69</ele>
        <time>2022-05-13T09:47:00.018Z</time>
      </trkpt>
      <trkpt lat="43.38941" lon="5.50375">
        <ele>431.78</ele>
        <time>2022-05-13T09:47:14.197Z</time>
      </trkpt>
      <trkpt lat="43.38956" lon="5.50361">
        <ele>431.97</ele>
        <time>2022-05-13T09:47:26.557Z</time>
      </trkpt>
      <trkpt lat="43.38963" lon="5.50338">
        <ele>431.25</ele>
        <time>2022-05-13T09:47:43.201Z</time>
      </trkpt>
      <trkpt lat="43.38955" lon="5.50316">
        <ele>428.23</ele>
        <time>2022-05-13T09:47:56.123Z</time>
      </trkpt>
      <trkpt lat="43.38946" lon="5.50294">
        <ele>424.85</ele>
        <time>2022-05-13T09:48:15.958Z</time>
      </trkpt>
      <trkpt lat="43.38937" lon="5.50272">
        <ele>420.86</ele>
        <time>2022-05-13T09:48:30.000Z</time>
      </trkpt>
      <trkpt lat="43.38926" lon="5.50251">
        <ele>416.77</ele>
        <time>2022-05-13T09:48:47.600Z</time>
      </trkpt>
      <trkpt lat="43.38923" lon="5.50226">
        <ele>414.63</ele>
        <time>2022-05-13T09:49:04.301Z</time>
      </trkpt>
      <trkpt lat="43.38923" lon="5.50201">
        <ele>413.72</ele>
        <time>2022-05-13T09:49:20.745Z</time>
      </trkpt>
      <trkpt lat="43.38922" lon="5.50176">
        <ele>411.97</ele>
        <time>2022-05-13T09:49:34.379Z</time>
      </trkpt>
      <trkpt lat="43.38925" lon="5.50151">
        <ele>409.96</ele>
        <time>2022-05-13T09:49:47.920Z</time>
      </trkpt>
      <trkpt lat="43.38935" lon="5.5013">
        <ele>410.56</ele>
        <time>2022-05-13T09:50:03.420Z</time>
      </trkpt>
      <trkpt lat="43.38939" lon="5.50105">
        <ele>408.53</ele>
        <time>2022-05-13T09:50:19.041Z</time>
      </trkpt>
      <trkpt lat="43.38936" lon="5.50081">
        <ele>403.33</ele>
        <time>2022-05-13T09:50:28.000Z</time>
      </trkpt>
      <trkpt lat="43.38934" lon="5.50055">
        <ele>398.68</ele>
        <time>2022-05-13T09:50:43.768Z</time>
      </trkpt>
      <trkpt lat="43.38933" lon="5.50031">
        <ele>394.96</ele>
        <time>2022-05-13T09:50:59.260Z</time>
      </trkpt>
      <trkpt lat="43.38931" lon="5.50005">
        <ele>391.15</ele>
        <time>2022-05-13T09:51:11.481Z</time>
      </trkpt>
      <trkpt lat="43.38932" lon="5.4998">
        <ele>388.55</ele>
        <time>2022-05-13T09:51:27.499Z</time>
      </trkpt>
      <trkpt lat="43.38934" lon="5.49955">
        <ele>386.41</ele>
        <time>2022-05-13T09:51:43.762Z</time>
      </trkpt>
      <trkpt lat="43.38936" lon="5.4993">
        <ele>384.17</ele>
        <time>2022-05-13T09:51:58.788Z</time>
      </trkpt>
      <trkpt lat="43.38945" lon="5.49908">
        <ele>381.47</ele>
        <time>2022-05-13T09:52:13.000Z</time>
      </trkpt>
      <trkpt lat="43.38962" lon="5.49914">
        <ele>383.02</ele>
        <time>2022-05-13T09:52:25.939Z</time>
      </trkpt>
      <trkpt lat="43.38977" lon="5.4993">
        <ele>387.45</ele>
        <time>2022-05-13T09:52:37.764Z</time>
      </trkpt>
      <trkpt lat="43.38995" lon="5.49938">
        <ele>390.36</ele>
        <time>2022-05-13T09:52:53.801Z</time>
      </trkpt>
      <trkpt lat="43.39012" lon="5.49945">
        <ele>391.41</ele>
        <time>2022-05-13T09:53:08.498Z</time>
      </trkpt>
      <trkpt lat="43.39031" lon="5.49948">
        <ele>389.05</ele>
        <time>2022-05-13T09:53:20.539Z</time>
      </trkpt>
      <trkpt lat="43.39049" lon="5.4995">
        <ele>385.62</ele>
        <time>2022-05-13T09:53:37.658Z</time>
      </trkpt>
      <trkpt lat="43.39067" lon="5.49953">
        <ele>382.57</ele>
        <time>2022-05-13T09:53:53.761Z</time>
      </trkpt>
      <trkpt lat="43.39085" lon="5.49956">
        <ele>379.98</ele>
        <time>2022-05-13T09:54:07.217Z</time>
      </trkpt>
      <trkpt lat="43.39103" lon="5.49963">
        <ele>378.24</ele>
        <time>2022-05-13T09:54:19.697Z</time>
      </trkpt>
      <trkpt lat="43.39118" lon="5.49977">
        <ele>376.56</ele>
        <time>2022-05-13T09:54:33.879Z</time>
      </trkpt>
      <trkpt lat="43.39126" lon="5.5">
        <ele>376.83</ele>
        <time>2022-05-13T09:54:50.701Z</time>
      </trkpt>
      <trkpt lat="43.39126" lon="5.50026">
        <ele>380.31</ele>
        <time>2022-05-13T09:55:04.878Z</time>
      </trkpt>
      <trkpt lat="43.39125" lon="5.50052">
        <ele>383.66</ele>
        <time>2022-05-13T09:55:21.070Z</time>
      </trkpt>
      <trkpt lat="43.39128" lon="5.50076">
        <ele>385.03</ele>
        <time>2022-05-13T09:55:35.100Z</time>
      </trkpt>
      <trkpt lat="43.39142" lon="5.50059">
        <ele>379.85</ele>
        <time>2022-05-13T09:56:02.081Z</time>
      </trkpt>
      <trkpt lat="43.39148" lon="5.50035">
        <ele>374.19</ele>
        <time>2022-05-13T09:56:14.779Z</time>
      </trkpt>
      <trkpt lat="43.39153" lon="5.50011">
        <ele>368.87</ele>
        <time>2022-05-13T09:56:28.960Z</time>
      </trkpt>
      <trkpt lat="43.39158" lon="5.49986">
        <ele>366.42</ele>
        <time>2022-05-13T09:56:43.062Z</time>
      </trkpt>
      <trkpt lat="43.39157" lon="5.49961">
        <ele>366.2</ele>
        <time>2022-05-13T09:57:00.273Z</time>
      </trkpt>
      <trkpt lat="43.3915" lon="5.49938">
        <ele>366.75</ele>
        <time>2022-05-13T09:57:16.150Z</time>
      </trkpt>
      <trkpt lat="43.39137" lon="5.4992">
        <ele>367.08</ele>
        <time>2022-05-13T09:57:35.571Z</time>
      </trkpt>
      <trkpt lat="43.3913" lon="5.49898">
        <ele>369.47</ele>
        <time>2022-05-13T09:57:53.132Z</time>
      </trkpt>
      <trkpt lat="43.3913" lon="5.49873">
        <ele>375.24</ele>
        <time>2022-05-13T09:58:23.935Z</time>
      </trkpt>
      <trkpt lat="43.39145" lon="5.49858">
        <ele>382.21</ele>
        <time>2022-05-13T09:59:10.034Z</time>
      </trkpt>
      <trkpt lat="43.39155" lon="5.49837">
        <ele>390.22</ele>
        <time>2022-05-13T10:00:14.999Z</time>
      </trkpt>
      <trkpt lat="43.39166" lon="5.49817">
        <ele>397.39</ele>
        <time>2022-05-13T10:00:59.058Z</time>
      </trkpt>
      <trkpt lat="43.39179" lon="5.49799">
        <ele>404.22</ele>
        <time>2022-05-13T10:01:20.215Z</time>
      </trkpt>
      <trkpt lat="43.39174" lon="5.49775">
        <ele>406.87</ele>
        <time>2022-05-13T10:02:47.798Z</time>
      </trkpt>
      <trkpt lat="43.3918" lon="5.49751">
        <ele>410.36</ele>
        <time>2022-05-13T10:04:18.000Z</time>
      </trkpt>
      <trkpt lat="43.39181" lon="5.49726">
        <ele>410.25</ele>
        <time>2022-05-13T10:04:32.020Z</time>
      </trkpt>
      <trkpt lat="43.39181" lon="5.497">
        <ele>408.22</ele>
        <time>2022-05-13T10:04:48.838Z</time>
      </trkpt>
      <trkpt lat="43.39189" lon="5.49676">
        <ele>406.59</ele>
        <time>2022-05-13T10:05:05.425Z</time>
      </trkpt>
      <trkpt lat="43.39192" lon="5.49652">
        <ele>404.31</ele>
        <time>2022-05-13T10:05:21.077Z</time>
      </trkpt>
      <trkpt lat="43.39199" lon="5.49629">
        <ele>401.5</ele>
        <time>2022-05-13T10:05:41.499Z</time>
      </trkpt>
      <trkpt lat="43.3921" lon="5.49608">
        <ele>396.83</ele>
        <time>2022-05-13T10:06:02.839Z</time>
      </trkpt>
      <trkpt lat="43.39218" lon="5.49585">
        <ele>390.38</ele>
        <time>2022-05-13T10:06:30.017Z</time>
      </trkpt>
      <trkpt lat="43.39229" lon="5.49566">
        <ele>382.75</ele>
        <time>2022-05-13T10:06:43.578Z</time>
      </trkpt>
      <trkpt lat="43.39236" lon="5.49542">
        <ele>374.55</ele>
        <time>2022-05-13T10:07:10.980Z</time>
      </trkpt>
      <trkpt lat="43.39229" lon="5.49519">
        <ele>370.21</ele>
        <time>2022-05-13T10:07:36.979Z</time>
      </trkpt>
      <trkpt lat="43.39247" lon="5.49513">
        <ele>367.31</ele>
        <time>2022-05-13T10:08:09.938Z</time>
      </trkpt>
      <trkpt lat="43.39264" lon="5.49525">
        <ele>368.78</ele>
        <time>2022-05-13T10:08:25.117Z</time>
      </trkpt>
      <trkpt lat="43.39281" lon="5.49536">
        <ele>370.86</ele>
        <time>2022-05-13T10:08:41.938Z</time>
      </trkpt>
      <trkpt lat="43.39295" lon="5.49552">
        <ele>372.89</ele>
        <time>2022-05-13T10:08:56.777Z</time>
      </trkpt>
      <trkpt lat="43.39306" lon="5.49573">
        <ele>374.51</ele>
        <time>2022-05-13T10:09:11.777Z</time>
      </trkpt>
      <trkpt lat="43.3931" lon="5.49598">
        <ele>378.16</ele>
        <time>2022-05-13T10:09:28.897Z</time>
      </trkpt>
      <trkpt lat="43.39322" lon="5.49616">
        <ele>380.88</ele>
        <time>2022-05-13T10:09:47.734Z</time>
      </trkpt>
      <trkpt lat="43.39341" lon="5.49619">
        <ele>380.14</ele>
        <time>2022-05-13T10:10:08.457Z</time>
      </trkpt>
      <trkpt lat="43.39359" lon="5.4962">
        <ele>380.11</ele>
        <time>2022-05-13T10:10:21.977Z</time>
      </trkpt>
      <trkpt lat="43.39376" lon="5.49611">
        <ele>378.74</ele>
        <time>2022-05-13T10:10:35.996Z</time>
      </trkpt>
      <trkpt lat="43.39393" lon="5.496">
        <ele>377.99</ele>
        <time>2022-05-13T10:10:55.854Z</time>
      </trkpt>
      <trkpt lat="43.3941" lon="5.49608">
        <ele>381.19</ele>
        <time>2022-05-13T10:11:15.557Z</time>
      </trkpt>
      <trkpt lat="43.39426" lon="5.4962">
        <ele>386.02</ele>
        <time>2022-05-13T10:11:34.157Z</time>
      </trkpt>
      <trkpt lat="43.39442" lon="5.49633">
        <ele>392.44</ele>
        <time>2022-05-13T10:11:55.155Z</time>
      </trkpt>
      <trkpt lat="43.39441" lon="5.49608">
        <ele>385.55</ele>
        <time>2022-05-13T10:12:11.835Z</time>
      </trkpt>
      <trkpt lat="43.39451" lon="5.49588">
        <ele>384.1</ele>
        <time>2022-05-13T10:12:28.414Z</time>
      </trkpt>
      <trkpt lat="43.39469" lon="5.49583">
        <ele>386.71</ele>
        <time>2022-05-13T10:12:48.877Z</time>
      </trkpt>
      <trkpt lat="43.39487" lon="5.49581">
        <ele>389.13</ele>
        <time>2022-05-13T10:13:05.215Z</time>
      </trkpt>
      <trkpt lat="43.39506" lon="5.49575">
        <ele>390.29</ele>
        <time>2022-05-13T10:13:20.615Z</time>
      </trkpt>
      <trkpt lat="43.39523" lon="5.49568">
        <ele>390.36</ele>
        <time>2022-05-13T10:13:35.448Z</time>
      </trkpt>
      <trkpt lat="43.3954" lon="5.49577">
        <ele>392.47</ele>
        <time>2022-05-13T10:14:00.954Z</time>
      </trkpt>
      <trkpt lat="43.39553" lon="5.49595">
        <ele>395.55</ele>
        <time>2022-05-13T10:14:12.999Z</time>
      </trkpt>
      <trkpt lat="43.39569" lon="5.49607">
        <ele>397.93</ele>
        <time>2022-05-13T10:14:36.815Z</time>
      </trkpt>
      <trkpt lat="43.39583" lon="5.49624">
        <ele>401</ele>
        <time>2022-05-13T10:14:54.914Z</time>
      </trkpt>
      <trkpt lat="43.39599" lon="5.49635">
        <ele>402.82</ele>
        <time>2022-05-13T10:15:22.703Z</time>
      </trkpt>
      <trkpt lat="43.39616" lon="5.49643">
        <ele>403.59</ele>
        <time>2022-05-13T10:15:34.954Z</time>
      </trkpt>
      <trkpt lat="43.39633" lon="5.49653">
        <ele>404.09</ele>
        <time>2022-05-13T10:15:52.855Z</time>
      </trkpt>
      <trkpt lat="43.3965" lon="5.49663">
        <ele>404.57</ele>
        <time>2022-05-13T10:16:05.999Z</time>
      </trkpt>
      <trkpt lat="43.39667" lon="5.49671">
        <ele>405.66</ele>
        <time>2022-05-13T10:16:23.153Z</time>
      </trkpt>
      <trkpt lat="43.39685" lon="5.49679">
        <ele>408.04</ele>
        <time>2022-05-13T10:16:41.974Z</time>
      </trkpt>
      <trkpt lat="43.39702" lon="5.49686">
        <ele>411.33</ele>
        <time>2022-05-13T10:17:12.999Z</time>
      </trkpt>
      <trkpt lat="43.3972" lon="5.49692">
        <ele>415.16</ele>
        <time>2022-05-13T10:17:29.813Z</time>
      </trkpt>
      <trkpt lat="43.39738" lon="5.49696">
        <ele>418.38</ele>
        <time>2022-05-13T10:17:38.335Z</time>
      </trkpt>
      <trkpt lat="43.39755" lon="5.49706">
        <ele>423.08</ele>
        <time>2022-05-13T10:17:50.595Z</time>
      </trkpt>
      <trkpt lat="43.39772" lon="5.49713">
        <ele>425.85</ele>
        <time>2022-05-13T10:18:11.996Z</time>
      </trkpt>
      <trkpt lat="43.39791" lon="5.49717">
        <ele>426.36</ele>
        <time>2022-05-13T10:18:36.796Z</time>
      </trkpt>
      <trkpt lat="43.39809" lon="5.49721">
        <ele>426.43</ele>
        <time>2022-05-13T10:18:55.015Z</time>
      </trkpt>
      <trkpt lat="43.39827" lon="5.49727">
        <ele>427.56</ele>
        <time>2022-05-13T10:19:11.077Z</time>
      </trkpt>
      <trkpt lat="43.39843" lon="5.4974">
        <ele>431.59</ele>
        <time>2022-05-13T10:19:25.081Z</time>
      </trkpt>
      <trkpt lat="43.39851" lon="5.49763">
        <ele>438.36</ele>
        <time>2022-05-13T10:19:45.158Z</time>
      </trkpt>
      <trkpt lat="43.39862" lon="5.49783">
        <ele>445.81</ele>
        <time>2022-05-13T10:20:03.337Z</time>
      </trkpt>
      <trkpt lat="43.39875" lon="5.49765">
        <ele>441.72</ele>
        <time>2022-05-13T10:20:27.699Z</time>
      </trkpt>
      <trkpt lat="43.39883" lon="5.49743">
        <ele>439.08</ele>
        <time>2022-05-13T10:20:47.777Z</time>
      </trkpt>
      <trkpt lat="43.399" lon="5.49732">
        <ele>440.85</ele>
        <time>2022-05-13T10:21:06.615Z</time>
      </trkpt>
      <trkpt lat="43.39917" lon="5.49722">
        <ele>441.97</ele>
        <time>2022-05-13T10:21:23.017Z</time>
      </trkpt>
      <trkpt lat="43.39934" lon="5.49715">
        <ele>443.99</ele>
        <time>2022-05-13T10:21:40.056Z</time>
      </trkpt>
      <trkpt lat="43.39952" lon="5.49707">
        <ele>445.59</ele>
        <time>2022-05-13T10:21:58.835Z</time>
      </trkpt>
      <trkpt lat="43.39969" lon="5.49702">
        <ele>448.5</ele>
        <time>2022-05-13T10:22:14.000Z</time>
      </trkpt>
      <trkpt lat="43.39988" lon="5.49698">
        <ele>451.75</ele>
        <time>2022-05-13T10:22:33.456Z</time>
      </trkpt>
      <trkpt lat="43.40006" lon="5.49701">
        <ele>456.56</ele>
        <time>2022-05-13T10:22:49.000Z</time>
      </trkpt>
      <trkpt lat="43.40011" lon="5.49677">
        <ele>454.21</ele>
        <time>2022-05-13T10:23:17.077Z</time>
      </trkpt>
      <trkpt lat="43.40002" lon="5.49655">
        <ele>452.86</ele>
        <time>2022-05-13T10:23:32.175Z</time>
      </trkpt>
      <trkpt lat="43.39992" lon="5.49634">
        <ele>455.84</ele>
        <time>2022-05-13T10:23:46.768Z</time>
      </trkpt>
      <trkpt lat="43.3998" lon="5.49615">
        <ele>460.71</ele>
        <time>2022-05-13T10:24:06.000Z</time>
      </trkpt>
      <trkpt lat="43.39972" lon="5.49592">
        <ele>468.88</ele>
        <time>2022-05-13T10:24:25.594Z</time>
      </trkpt>
      <trkpt lat="43.39955" lon="5.49584">
        <ele>468.79</ele>
        <time>2022-05-13T10:24:43.897Z</time>
      </trkpt>
      <trkpt lat="43.39937" lon="5.49584">
        <ele>465.82</ele>
        <time>2022-05-13T10:25:03.136Z</time>
      </trkpt>
      <trkpt lat="43.3992" lon="5.49573">
        <ele>466.79</ele>
        <time>2022-05-13T10:25:18.657Z</time>
      </trkpt>
      <trkpt lat="43.39901" lon="5.49569">
        <ele>465.32</ele>
        <time>2022-05-13T10:25:36.115Z</time>
      </trkpt>
      <trkpt lat="43.39883" lon="5.49576">
        <ele>461.7</ele>
        <time>2022-05-13T10:25:52.135Z</time>
      </trkpt>
      <trkpt lat="43.39865" lon="5.49572">
        <ele>460.76</ele>
        <time>2022-05-13T10:26:09.765Z</time>
      </trkpt>
      <trkpt lat="43.39858" lon="5.49548">
        <ele>462.13</ele>
        <time>2022-05-13T10:26:27.994Z</time>
      </trkpt>
      <trkpt lat="43.39865" lon="5.49525">
        <ele>465.41</ele>
        <time>2022-05-13T10:26:48.874Z</time>
      </trkpt>
      <trkpt lat="43.3988" lon="5.4951">
        <ele>472.25</ele>
        <time>2022-05-13T10:27:07.764Z</time>
      </trkpt>
      <trkpt lat="43.39893" lon="5.49492">
        <ele>479.46</ele>
        <time>2022-05-13T10:27:23.152Z</time>
      </trkpt>
      <trkpt lat="43.39905" lon="5.49473">
        <ele>485.24</ele>
        <time>2022-05-13T10:27:44.214Z</time>
      </trkpt>
      <trkpt lat="43.39905" lon="5.49448">
        <ele>485.65</ele>
        <time>2022-05-13T10:27:59.611Z</time>
      </trkpt>
      <trkpt lat="43.39892" lon="5.49428">
        <ele>482.25</ele>
        <time>2022-05-13T10:28:12.995Z</time>
      </trkpt>
      <trkpt lat="43.3988" lon="5.49409">
        <ele>481.27</ele>
        <time>2022-05-13T10:28:30.853Z</time>
      </trkpt>
      <trkpt lat="43.39869" lon="5.49389">
        <ele>483.02</ele>
        <time>2022-05-13T10:28:47.596Z</time>
      </trkpt>
      <trkpt lat="43.39874" lon="5.49365">
        <ele>492.01</ele>
        <time>2022-05-13T10:29:08.796Z</time>
      </trkpt>
      <trkpt lat="43.39866" lon="5.49342">
        <ele>493.08</ele>
        <time>2022-05-13T10:29:28.636Z</time>
      </trkpt>
      <trkpt lat="43.39861" lon="5.49318">
        <ele>489.45</ele>
        <time>2022-05-13T10:29:51.999Z</time>
      </trkpt>
      <trkpt lat="43.39879" lon="5.49306">
        <ele>495.05</ele>
        <time>2022-05-13T10:30:27.937Z</time>
      </trkpt>
      <trkpt lat="43.39897" lon="5.49309">
        <ele>503.68</ele>
        <time>2022-05-13T10:30:43.875Z</time>
      </trkpt>
      <trkpt lat="43.39913" lon="5.49295">
        <ele>505.15</ele>
        <time>2022-05-13T10:31:08.835Z</time>
      </trkpt>
      <trkpt lat="43.39929" lon="5.49284">
        <ele>504.55</ele>
        <time>2022-05-13T10:31:26.996Z</time>
      </trkpt>
      <trkpt lat="43.39946" lon="5.49294">
        <ele>510.4</ele>
        <time>2022-05-13T10:31:45.061Z</time>
      </trkpt>
      <trkpt lat="43.39964" lon="5.49295">
        <ele>512.05</ele>
        <time>2022-05-13T10:32:10.996Z</time>
      </trkpt>
      <trkpt lat="43.39983" lon="5.49295">
        <ele>513.13</ele>
        <time>2022-05-13T10:32:31.856Z</time>
      </trkpt>
      <trkpt lat="43.40001" lon="5.49287">
        <ele>509.45</ele>
        <time>2022-05-13T10:32:46.000Z</time>
      </trkpt>
      <trkpt lat="43.40018" lon="5.49279">
        <ele>506.15</ele>
        <time>2022-05-13T10:32:59.999Z</time>
      </trkpt>
      <trkpt lat="43.40035" lon="5.49269">
        <ele>501.66</ele>
        <time>2022-05-13T10:33:14.397Z</time>
      </trkpt>
      <trkpt lat="43.4005" lon="5.49255">
        <ele>496.14</ele>
        <time>2022-05-13T10:34:28.999Z</time>
      </trkpt>
      <trkpt lat="43.40066" lon="5.49269">
        <ele>505.7</ele>
        <time>2022-05-13T10:38:21.000Z</time>
      </trkpt>
      <trkpt lat="43.40081" lon="5.49284">
        <ele>518.62</ele>
        <time>2022-05-13T10:38:48.377Z</time>
      </trkpt>
      <trkpt lat="43.40098" lon="5.49293">
        <ele>527.73</ele>
        <time>2022-05-13T10:39:01.911Z</time>
      </trkpt>
      <trkpt lat="43.40116" lon="5.49293">
        <ele>530.65</ele>
        <time>2022-05-13T10:39:18.021Z</time>
      </trkpt>
      <trkpt lat="43.40128" lon="5.49274">
        <ele>524.39</ele>
        <time>2022-05-13T10:39:33.400Z</time>
      </trkpt>
      <trkpt lat="43.40141" lon="5.49256">
        <ele>522.22</ele>
        <time>2022-05-13T10:39:51.810Z</time>
      </trkpt>
      <trkpt lat="43.40147" lon="5.49232">
        <ele>513.57</ele>
        <time>2022-05-13T10:40:10.911Z</time>
      </trkpt>
      <trkpt lat="43.40163" lon="5.4922">
        <ele>511.95</ele>
        <time>2022-05-13T10:40:37.943Z</time>
      </trkpt>
      <trkpt lat="43.40181" lon="5.49223">
        <ele>516.65</ele>
        <time>2022-05-13T10:40:54.474Z</time>
      </trkpt>
      <trkpt lat="43.40198" lon="5.49232">
        <ele>523.67</ele>
        <time>2022-05-13T10:41:12.774Z</time>
      </trkpt>
      <trkpt lat="43.40216" lon="5.4923">
        <ele>523.13</ele>
        <time>2022-05-13T10:41:35.493Z</time>
      </trkpt>
      <trkpt lat="43.40235" lon="5.49225">
        <ele>520.89</ele>
        <time>2022-05-13T10:41:54.768Z</time>
      </trkpt>
      <trkpt lat="43.40253" lon="5.49219">
        <ele>519.61</ele>
        <time>2022-05-13T10:42:16.014Z</time>
      </trkpt>
      <trkpt lat="43.40271" lon="5.49223">
        <ele>524.88</ele>
        <time>2022-05-13T10:42:39.092Z</time>
      </trkpt>
      <trkpt lat="43.40288" lon="5.49213">
        <ele>523.07</ele>
        <time>2022-05-13T10:42:52.994Z</time>
      </trkpt>
      <trkpt lat="43.40305" lon="5.49223">
        <ele>531.32</ele>
        <time>2022-05-13T10:43:11.152Z</time>
      </trkpt>
      <trkpt lat="43.40323" lon="5.49216">
        <ele>534.74</ele>
        <time>2022-05-13T10:43:35.000Z</time>
      </trkpt>
      <trkpt lat="43.40331" lon="5.49193">
        <ele>534.82</ele>
        <time>2022-05-13T10:44:08.033Z</time>
      </trkpt>
      <trkpt lat="43.40331" lon="5.49168">
        <ele>535.54</ele>
        <time>2022-05-13T10:44:32.792Z</time>
      </trkpt>
      <trkpt lat="43.40329" lon="5.49143">
        <ele>540.77</ele>
        <time>2022-05-13T10:44:59.753Z</time>
      </trkpt>
      <trkpt lat="43.40323" lon="5.49119">
        <ele>547.64</ele>
        <time>2022-05-13T10:45:30.132Z</time>
      </trkpt>
      <trkpt lat="43.40306" lon="5.49109">
        <ele>539.88</ele>
        <time>2022-05-13T10:46:25.920Z</time>
      </trkpt>
      <trkpt lat="43.40299" lon="5.49086">
        <ele>543.07</ele>
        <time>2022-05-13T10:46:41.999Z</time>
      </trkpt>
      <trkpt lat="43.40288" lon="5.49065">
        <ele>540.85</ele>
        <time>2022-05-13T10:47:00.132Z</time>
      </trkpt>
      <trkpt lat="43.40276" lon="5.49047">
        <ele>539.49</ele>
        <time>2022-05-13T10:47:25.695Z</time>
      </trkpt>
      <trkpt lat="43.40266" lon="5.49025">
        <ele>543.81</ele>
        <time>2022-05-13T10:48:14.742Z</time>
      </trkpt>
      <trkpt lat="43.40261" lon="5.49002">
        <ele>552.36</ele>
        <time>2022-05-13T10:48:54.999Z</time>
      </trkpt>
      <trkpt lat="43.40257" lon="5.48977">
        <ele>559.91</ele>
        <time>2022-05-13T10:49:26.671Z</time>
      </trkpt>
      <trkpt lat="43.40275" lon="5.48976">
        <ele>567.03</ele>
        <time>2022-05-13T10:50:02.450Z</time>
      </trkpt>
      <trkpt lat="43.40293" lon="5.48978">
        <ele>572.04</ele>
        <time>2022-05-13T10:50:39.999Z</time>
      </trkpt>
      <trkpt lat="43.40311" lon="5.48983">
        <ele>576.01</ele>
        <time>2022-05-13T10:51:06.992Z</time>
      </trkpt>
      <trkpt lat="43.40309" lon="5.48958">
        <ele>581.79</ele>
        <time>2022-05-13T10:52:36.832Z</time>
      </trkpt>
      <trkpt lat="43.40293" lon="5.48942">
        <ele>581.61</ele>
        <time>2022-05-13T10:53:13.951Z</time>
      </trkpt>
      <trkpt lat="43.40279" lon="5.48927">
        <ele>580.49</ele>
        <time>2022-05-13T10:53:28.132Z</time>
      </trkpt>
      <trkpt lat="43.40267" lon="5.48908">
        <ele>578.53</ele>
        <time>2022-05-13T10:53:44.791Z</time>
      </trkpt>
      <trkpt lat="43.40284" lon="5.48899">
        <ele>581.12</ele>
        <time>2022-05-13T10:54:04.373Z</time>
      </trkpt>
      <trkpt lat="43.40303" lon="5.48898">
        <ele>583.85</ele>
        <time>2022-05-13T10:54:18.792Z</time>
      </trkpt>
      <trkpt lat="43.40319" lon="5.48886">
        <ele>583.11</ele>
        <time>2022-05-13T10:54:35.513Z</time>
      </trkpt>
      <trkpt lat="43.40337" lon="5.48888">
        <ele>585.96</ele>
        <time>2022-05-13T10:54:52.817Z</time>
      </trkpt>
      <trkpt lat="43.40355" lon="5.48893">
        <ele>588.78</ele>
        <time>2022-05-13T10:55:09.114Z</time>
      </trkpt>
      <trkpt lat="43.40373" lon="5.48884">
        <ele>587.16</ele>
        <time>2022-05-13T10:55:24.596Z</time>
      </trkpt>
      <trkpt lat="43.40383" lon="5.48862">
        <ele>581.41</ele>
        <time>2022-05-13T10:55:40.114Z</time>
      </trkpt>
      <trkpt lat="43.40399" lon="5.4885">
        <ele>580.54</ele>
        <time>2022-05-13T10:55:56.000Z</time>
      </trkpt>
      <trkpt lat="43.40415" lon="5.48863">
        <ele>587.25</ele>
        <time>2022-05-13T10:56:09.757Z</time>
      </trkpt>
      <trkpt lat="43.4043" lon="5.4885">
        <ele>589.69</ele>
        <time>2022-05-13T10:56:26.076Z</time>
      </trkpt>
      <trkpt lat="43.40446" lon="5.48837">
        <ele>594.9</ele>
        <time>2022-05-13T10:56:43.178Z</time>
      </trkpt>
      <trkpt lat="43.40447" lon="5.48811">
        <ele>591.42</ele>
        <time>2022-05-13T10:56:59.918Z</time>
      </trkpt>
      <trkpt lat="43.40457" lon="5.48791">
        <ele>594.48</ele>
        <time>2022-05-13T10:57:14.539Z</time>
      </trkpt>
      <trkpt lat="43.40466" lon="5.48769">
        <ele>596.34</ele>
        <time>2022-05-13T10:57:29.837Z</time>
      </trkpt>
      <trkpt lat="43.40472" lon="5.48744">
        <ele>594.99</ele>
        <time>2022-05-13T10:57:45.978Z</time>
      </trkpt>
      <trkpt lat="43.40484" lon="5.48724">
        <ele>596.12</ele>
        <time>2022-05-13T10:58:03.939Z</time>
      </trkpt>
      <trkpt lat="43.40483" lon="5.48699">
        <ele>590.76</ele>
        <time>2022-05-13T10:58:18.919Z</time>
      </trkpt>
      <trkpt lat="43.40501" lon="5.48691">
        <ele>592.04</ele>
        <time>2022-05-13T10:58:32.357Z</time>
      </trkpt>
      <trkpt lat="43.40519" lon="5.4869">
        <ele>590.14</ele>
        <time>2022-05-13T10:58:44.639Z</time>
      </trkpt>
      <trkpt lat="43.40546" lon="5.48792">
        <ele>600.47</ele>
        <time>2022-05-13T11:24:32.999Z</time>
      </trkpt>
      <trkpt lat="43.40563" lon="5.48804">
        <ele>596.09</ele>
        <time>2022-05-13T11:26:48.800Z</time>
      </trkpt>
      <trkpt lat="43.40581" lon="5.488">
        <ele>590.22</ele>
        <time>2022-05-13T11:27:02.069Z</time>
      </trkpt>
      <trkpt lat="43.40597" lon="5.48787">
        <ele>585.47</ele>
        <time>2022-05-13T11:27:15.647Z</time>
      </trkpt>
      <trkpt lat="43.406" lon="5.48762">
        <ele>580.42</ele>
        <time>2022-05-13T11:27:31.167Z</time>
      </trkpt>
      <trkpt lat="43.40611" lon="5.48741">
        <ele>576.7</ele>
        <time>2022-05-13T11:27:52.884Z</time>
      </trkpt>
      <trkpt lat="43.40629" lon="5.48742">
        <ele>577.44</ele>
        <time>2022-05-13T11:28:05.244Z</time>
      </trkpt>
      <trkpt lat="43.40647" lon="5.48732">
        <ele>577.6</ele>
        <time>2022-05-13T11:28:20.108Z</time>
      </trkpt>
      <trkpt lat="43.40654" lon="5.48708">
        <ele>575.58</ele>
        <time>2022-05-13T11:28:38.611Z</time>
      </trkpt>
      <trkpt lat="43.4067" lon="5.48697">
        <ele>576.66</ele>
        <time>2022-05-13T11:29:05.152Z</time>
      </trkpt>
      <trkpt lat="43.40662" lon="5.48674">
        <ele>573.1</ele>
        <time>2022-05-13T11:29:19.385Z</time>
      </trkpt>
      <trkpt lat="43.40668" lon="5.4865">
        <ele>571.58</ele>
        <time>2022-05-13T11:29:36.746Z</time>
      </trkpt>
      <trkpt lat="43.40666" lon="5.48624">
        <ele>569.31</ele>
        <time>2022-05-13T11:29:57.287Z</time>
      </trkpt>
      <trkpt lat="43.40661" lon="5.486">
        <ele>567.15</ele>
        <time>2022-05-13T11:30:15.508Z</time>
      </trkpt>
      <trkpt lat="43.4066" lon="5.48575">
        <ele>566</ele>
        <time>2022-05-13T11:30:28.848Z</time>
      </trkpt>
      <trkpt lat="43.40656" lon="5.48551">
        <ele>564.91</ele>
        <time>2022-05-13T11:30:51.785Z</time>
      </trkpt>
      <trkpt lat="43.40653" lon="5.48526">
        <ele>563.99</ele>
        <time>2022-05-13T11:31:12.125Z</time>
      </trkpt>
      <trkpt lat="43.40647" lon="5.48503">
        <ele>562.07</ele>
        <time>2022-05-13T11:31:22.744Z</time>
      </trkpt>
      <trkpt lat="43.40639" lon="5.4848">
        <ele>559.58</ele>
        <time>2022-05-13T11:31:36.142Z</time>
      </trkpt>
      <trkpt lat="43.40634" lon="5.48456">
        <ele>558.01</ele>
        <time>2022-05-13T11:31:52.041Z</time>
      </trkpt>
      <trkpt lat="43.40636" lon="5.48431">
        <ele>558.31</ele>
        <time>2022-05-13T11:32:06.633Z</time>
      </trkpt>
      <trkpt lat="43.40633" lon="5.48406">
        <ele>557.7</ele>
        <time>2022-05-13T11:32:20.891Z</time>
      </trkpt>
      <trkpt lat="43.40631" lon="5.4838">
        <ele>557.99</ele>
        <time>2022-05-13T11:32:36.553Z</time>
      </trkpt>
      <trkpt lat="43.40626" lon="5.48356">
        <ele>557.87</ele>
        <time>2022-05-13T11:32:54.747Z</time>
      </trkpt>
      <trkpt lat="43.40619" lon="5.48332">
        <ele>556.24</ele>
        <time>2022-05-13T11:33:10.846Z</time>
      </trkpt>
      <trkpt lat="43.40609" lon="5.48312">
        <ele>553.21</ele>
        <time>2022-05-13T11:33:28.016Z</time>
      </trkpt>
      <trkpt lat="43.40608" lon="5.48287">
        <ele>547.67</ele>
        <time>2022-05-13T11:33:52.711Z</time>
      </trkpt>
      <trkpt lat="43.40623" lon="5.48272">
        <ele>540.94</ele>
        <time>2022-05-13T11:34:12.999Z</time>
      </trkpt>
      <trkpt lat="43.40637" lon="5.48256">
        <ele>534.29</ele>
        <time>2022-05-13T11:34:44.709Z</time>
      </trkpt>
      <trkpt lat="43.40652" lon="5.4824">
        <ele>530.85</ele>
        <time>2022-05-13T11:35:19.999Z</time>
      </trkpt>
      <trkpt lat="43.40668" lon="5.48227">
        <ele>532.11</ele>
        <time>2022-05-13T11:36:05.632Z</time>
      </trkpt>
      <trkpt lat="43.40684" lon="5.48215">
        <ele>537.49</ele>
        <time>2022-05-13T11:37:10.804Z</time>
      </trkpt>
      <trkpt lat="43.40693" lon="5.48193">
        <ele>543.84</ele>
        <time>2022-05-13T11:37:28.907Z</time>
      </trkpt>
      <trkpt lat="43.40699" lon="5.4817">
        <ele>549.5</ele>
        <time>2022-05-13T11:37:46.110Z</time>
      </trkpt>
      <trkpt lat="43.40704" lon="5.48146">
        <ele>553.95</ele>
        <time>2022-05-13T11:38:06.667Z</time>
      </trkpt>
      <trkpt lat="43.40709" lon="5.48121">
        <ele>558.02</ele>
        <time>2022-05-13T11:38:28.067Z</time>
      </trkpt>
      <trkpt lat="43.40715" lon="5.48098">
        <ele>561.25</ele>
        <time>2022-05-13T11:38:49.726Z</time>
      </trkpt>
      <trkpt lat="43.40719" lon="5.48073">
        <ele>563.84</ele>
        <time>2022-05-13T11:39:08.104Z</time>
      </trkpt>
      <trkpt lat="43.40722" lon="5.48048">
        <ele>566.53</ele>
        <time>2022-05-13T11:39:33.040Z</time>
      </trkpt>
      <trkpt lat="43.40726" lon="5.48022">
        <ele>569.06</ele>
        <time>2022-05-13T11:39:53.059Z</time>
      </trkpt>
      <trkpt lat="43.40727" lon="5.47998">
        <ele>571.26</ele>
        <time>2022-05-13T11:40:10.999Z</time>
      </trkpt>
      <trkpt lat="43.40729" lon="5.47972">
        <ele>573.27</ele>
        <time>2022-05-13T11:40:35.710Z</time>
      </trkpt>
      <trkpt lat="43.40732" lon="5.47948">
        <ele>575.02</ele>
        <time>2022-05-13T11:40:57.836Z</time>
      </trkpt>
      <trkpt lat="43.40732" lon="5.47922">
        <ele>577.05</ele>
        <time>2022-05-13T11:41:16.988Z</time>
      </trkpt>
      <trkpt lat="43.40734" lon="5.47896">
        <ele>579.39</ele>
        <time>2022-05-13T11:41:40.020Z</time>
      </trkpt>
      <trkpt lat="43.40736" lon="5.47871">
        <ele>582</ele>
        <time>2022-05-13T11:41:58.913Z</time>
      </trkpt>
      <trkpt lat="43.4073" lon="5.47848">
        <ele>583.47</ele>
        <time>2022-05-13T11:42:21.145Z</time>
      </trkpt>
      <trkpt lat="43.40733" lon="5.47822">
        <ele>582.86</ele>
        <time>2022-05-13T11:42:41.084Z</time>
      </trkpt>
      <trkpt lat="43.40723" lon="5.47802">
        <ele>582.41</ele>
        <time>2022-05-13T11:42:56.906Z</time>
      </trkpt>
      <trkpt lat="43.40711" lon="5.47783">
        <ele>583.91</ele>
        <time>2022-05-13T11:43:13.000Z</time>
      </trkpt>
      <trkpt lat="43.40698" lon="5.47766">
        <ele>587.1</ele>
        <time>2022-05-13T11:43:30.800Z</time>
      </trkpt>
      <trkpt lat="43.40686" lon="5.47748">
        <ele>590.27</ele>
        <time>2022-05-13T11:43:47.000Z</time>
      </trkpt>
      <trkpt lat="43.40672" lon="5.47732">
        <ele>592.83</ele>
        <time>2022-05-13T11:44:04.554Z</time>
      </trkpt>
      <trkpt lat="43.40657" lon="5.47716">
        <ele>594.04</ele>
        <time>2022-05-13T11:44:22.693Z</time>
      </trkpt>
      <trkpt lat="43.40641" lon="5.47703">
        <ele>595.63</ele>
        <time>2022-05-13T11:44:39.000Z</time>
      </trkpt>
      <trkpt lat="43.40627" lon="5.47688">
        <ele>597.94</ele>
        <time>2022-05-13T11:44:55.128Z</time>
      </trkpt>
      <trkpt lat="43.40616" lon="5.47668">
        <ele>600.33</ele>
        <time>2022-05-13T11:45:10.869Z</time>
      </trkpt>
      <trkpt lat="43.40606" lon="5.47647">
        <ele>601.28</ele>
        <time>2022-05-13T11:45:25.209Z</time>
      </trkpt>
      <trkpt lat="43.40594" lon="5.47628">
        <ele>602.24</ele>
        <time>2022-05-13T11:45:42.147Z</time>
      </trkpt>
      <trkpt lat="43.40583" lon="5.47607">
        <ele>601.96</ele>
        <time>2022-05-13T11:45:56.884Z</time>
      </trkpt>
      <trkpt lat="43.40572" lon="5.47587">
        <ele>601.19</ele>
        <time>2022-05-13T11:46:12.131Z</time>
      </trkpt>
      <trkpt lat="43.40555" lon="5.47578">
        <ele>603.93</ele>
        <time>2022-05-13T11:46:29.000Z</time>
      </trkpt>
      <trkpt lat="43.40537" lon="5.47573">
        <ele>607.66</ele>
        <time>2022-05-13T11:46:46.167Z</time>
      </trkpt>
      <trkpt lat="43.40522" lon="5.47559">
        <ele>609.66</ele>
        <time>2022-05-13T11:47:03.000Z</time>
      </trkpt>
      <trkpt lat="43.40514" lon="5.47536">
        <ele>607.85</ele>
        <time>2022-05-13T11:47:17.000Z</time>
      </trkpt>
      <trkpt lat="43.40506" lon="5.47513">
        <ele>607.19</ele>
        <time>2022-05-13T11:47:34.844Z</time>
      </trkpt>
      <trkpt lat="43.40499" lon="5.47489">
        <ele>609.12</ele>
        <time>2022-05-13T11:47:49.866Z</time>
      </trkpt>
      <trkpt lat="43.405" lon="5.47465">
        <ele>608.81</ele>
        <time>2022-05-13T11:48:07.728Z</time>
      </trkpt>
      <trkpt lat="43.40502" lon="5.47439">
        <ele>608.62</ele>
        <time>2022-05-13T11:48:26.000Z</time>
      </trkpt>
      <trkpt lat="43.40492" lon="5.47418">
        <ele>614.59</ele>
        <time>2022-05-13T11:48:58.928Z</time>
      </trkpt>
      <trkpt lat="43.40478" lon="5.47401">
        <ele>623.5</ele>
        <time>2022-05-13T11:49:13.185Z</time>
      </trkpt>
      <trkpt lat="43.40475" lon="5.47376">
        <ele>622.47</ele>
        <time>2022-05-13T11:49:28.064Z</time>
      </trkpt>
      <trkpt lat="43.4047" lon="5.47351">
        <ele>623.04</ele>
        <time>2022-05-13T11:49:40.824Z</time>
      </trkpt>
      <trkpt lat="43.40459" lon="5.4733">
        <ele>629.69</ele>
        <time>2022-05-13T11:49:56.028Z</time>
      </trkpt>
      <trkpt lat="43.40454" lon="5.47306">
        <ele>626.05</ele>
        <time>2022-05-13T11:50:10.650Z</time>
      </trkpt>
      <trkpt lat="43.4045" lon="5.47281">
        <ele>618.22</ele>
        <time>2022-05-13T11:50:23.209Z</time>
      </trkpt>
      <trkpt lat="43.4044" lon="5.4726">
        <ele>617.45</ele>
        <time>2022-05-13T11:50:36.186Z</time>
      </trkpt>
      <trkpt lat="43.40429" lon="5.47239">
        <ele>618.6</ele>
        <time>2022-05-13T11:50:48.805Z</time>
      </trkpt>
      <trkpt lat="43.40422" lon="5.47216">
        <ele>620.52</ele>
        <time>2022-05-13T11:51:05.366Z</time>
      </trkpt>
      <trkpt lat="43.40426" lon="5.47191">
        <ele>622.64</ele>
        <time>2022-05-13T11:51:17.999Z</time>
      </trkpt>
      <trkpt lat="43.40436" lon="5.47169">
        <ele>623.18</ele>
        <time>2022-05-13T11:51:30.702Z</time>
      </trkpt>
      <trkpt lat="43.40445" lon="5.47147">
        <ele>622.14</ele>
        <time>2022-05-13T11:51:43.999Z</time>
      </trkpt>
      <trkpt lat="43.40463" lon="5.47142">
        <ele>619.36</ele>
        <time>2022-05-13T11:51:59.161Z</time>
      </trkpt>
      <trkpt lat="43.40482" lon="5.47138">
        <ele>615.53</ele>
        <time>2022-05-13T11:52:13.023Z</time>
      </trkpt>
      <trkpt lat="43.40498" lon="5.47126">
        <ele>614.53</ele>
        <time>2022-05-13T11:52:26.789Z</time>
      </trkpt>
      <trkpt lat="43.40504" lon="5.47103">
        <ele>619.79</ele>
        <time>2022-05-13T11:52:40.630Z</time>
      </trkpt>
      <trkpt lat="43.40509" lon="5.47079">
        <ele>623.98</ele>
        <time>2022-05-13T11:52:54.667Z</time>
      </trkpt>
      <trkpt lat="43.4052" lon="5.47058">
        <ele>624.25</ele>
        <time>2022-05-13T11:53:10.085Z</time>
      </trkpt>
      <trkpt lat="43.40524" lon="5.47033">
        <ele>625.57</ele>
        <time>2022-05-13T11:53:27.042Z</time>
      </trkpt>
      <trkpt lat="43.40521" lon="5.47009">
        <ele>629.87</ele>
        <time>2022-05-13T11:53:41.508Z</time>
      </trkpt>
      <trkpt lat="43.40519" lon="5.46983">
        <ele>633.91</ele>
        <time>2022-05-13T11:53:56.865Z</time>
      </trkpt>
      <trkpt lat="43.40525" lon="5.4696">
        <ele>634.11</ele>
        <time>2022-05-13T11:54:16.042Z</time>
      </trkpt>
      <trkpt lat="43.40534" lon="5.46938">
        <ele>631.41</ele>
        <time>2022-05-13T11:54:32.901Z</time>
      </trkpt>
      <trkpt lat="43.40537" lon="5.46913">
        <ele>633.44</ele>
        <time>2022-05-13T11:55:04.216Z</time>
      </trkpt>
      <trkpt lat="43.40545" lon="5.4689">
        <ele>635.3</ele>
        <time>2022-05-13T11:55:19.999Z</time>
      </trkpt>
      <trkpt lat="43.40546" lon="5.46865">
        <ele>643.14</ele>
        <time>2022-05-13T11:55:37.625Z</time>
      </trkpt>
      <trkpt lat="43.40555" lon="5.46843">
        <ele>643.78</ele>
        <time>2022-05-13T11:55:51.063Z</time>
      </trkpt>
      <trkpt lat="43.40573" lon="5.46841">
        <ele>634.52</ele>
        <time>2022-05-13T11:56:05.561Z</time>
      </trkpt>
      <trkpt lat="43.40592" lon="5.4684">
        <ele>628.87</ele>
        <time>2022-05-13T11:56:20.130Z</time>
      </trkpt>
      <trkpt lat="43.4061" lon="5.46839">
        <ele>625.89</ele>
        <time>2022-05-13T11:56:39.009Z</time>
      </trkpt>
      <trkpt lat="43.40629" lon="5.46834">
        <ele>624.86</ele>
        <time>2022-05-13T11:56:53.865Z</time>
      </trkpt>
      <trkpt lat="43.4062" lon="5.46812">
        <ele>623.78</ele>
        <time>2022-05-13T11:57:11.200Z</time>
      </trkpt>
      <trkpt lat="43.40605" lon="5.46797">
        <ele>623.67</ele>
        <time>2022-05-13T11:57:33.043Z</time>
      </trkpt>
      <trkpt lat="43.40588" lon="5.46786">
        <ele>627.71</ele>
        <time>2022-05-13T11:57:49.831Z</time>
      </trkpt>
      <trkpt lat="43.40577" lon="5.46767">
        <ele>631.43</ele>
        <time>2022-05-13T11:58:21.147Z</time>
      </trkpt>
      <trkpt lat="43.40571" lon="5.46743">
        <ele>633.83</ele>
        <time>2022-05-13T11:59:22.050Z</time>
      </trkpt>
      <trkpt lat="43.4056" lon="5.46723">
        <ele>642.33</ele>
        <time>2022-05-13T11:59:37.548Z</time>
      </trkpt>
      <trkpt lat="43.4055" lon="5.46702">
        <ele>649.19</ele>
        <time>2022-05-13T11:59:51.267Z</time>
      </trkpt>
      <trkpt lat="43.40546" lon="5.46677">
        <ele>649.01</ele>
        <time>2022-05-13T12:00:09.203Z</time>
      </trkpt>
      <trkpt lat="43.40551" lon="5.46653">
        <ele>644.25</ele>
        <time>2022-05-13T12:00:26.000Z</time>
      </trkpt>
      <trkpt lat="43.4055" lon="5.46627">
        <ele>644.67</ele>
        <time>2022-05-13T12:00:47.000Z</time>
      </trkpt>
      <trkpt lat="43.40549" lon="5.46602">
        <ele>645.11</ele>
        <time>2022-05-13T12:01:03.829Z</time>
      </trkpt>
      <trkpt lat="43.40541" lon="5.46579">
        <ele>646.34</ele>
        <time>2022-05-13T12:01:23.127Z</time>
      </trkpt>
      <trkpt lat="43.40537" lon="5.46554">
        <ele>648.19</ele>
        <time>2022-05-13T12:07:50.999Z</time>
      </trkpt>
      <trkpt lat="43.40529" lon="5.46531">
        <ele>652.93</ele>
        <time>2022-05-13T12:08:07.244Z</time>
      </trkpt>
      <trkpt lat="43.40524" lon="5.46507">
        <ele>657.31</ele>
        <time>2022-05-13T12:08:25.045Z</time>
      </trkpt>
      <trkpt lat="43.40521" lon="5.46481">
        <ele>656.39</ele>
        <time>2022-05-13T12:08:45.080Z</time>
      </trkpt>
      <trkpt lat="43.40516" lon="5.46457">
        <ele>652.26</ele>
        <time>2022-05-13T12:09:09.132Z</time>
      </trkpt>
      <trkpt lat="43.40525" lon="5.46435">
        <ele>647.32</ele>
        <time>2022-05-13T12:09:25.999Z</time>
      </trkpt>
      <trkpt lat="43.40537" lon="5.46417">
        <ele>645.91</ele>
        <time>2022-05-13T12:09:54.788Z</time>
      </trkpt>
      <trkpt lat="43.40529" lon="5.46394">
        <ele>647.44</ele>
        <time>2022-05-13T12:10:19.563Z</time>
      </trkpt>
      <trkpt lat="43.40527" lon="5.4637">
        <ele>651.11</ele>
        <time>2022-05-13T12:10:41.930Z</time>
      </trkpt>
      <trkpt lat="43.40524" lon="5.46345">
        <ele>655.06</ele>
        <time>2022-05-13T12:11:13.844Z</time>
      </trkpt>
      <trkpt lat="43.40522" lon="5.46321">
        <ele>657.15</ele>
        <time>2022-05-13T12:11:49.242Z</time>
      </trkpt>
      <trkpt lat="43.40523" lon="5.46295">
        <ele>657.7</ele>
        <time>2022-05-13T12:12:07.302Z</time>
      </trkpt>
      <trkpt lat="43.40528" lon="5.4627">
        <ele>656.83</ele>
        <time>2022-05-13T12:12:27.032Z</time>
      </trkpt>
      <trkpt lat="43.40516" lon="5.46251">
        <ele>658.36</ele>
        <time>2022-05-13T12:13:34.922Z</time>
      </trkpt>
      <trkpt lat="43.40501" lon="5.46237">
        <ele>658.9</ele>
        <time>2022-05-13T12:14:03.767Z</time>
      </trkpt>
      <trkpt lat="43.40484" lon="5.46226">
        <ele>656.37</ele>
        <time>2022-05-13T12:14:25.000Z</time>
      </trkpt>
      <trkpt lat="43.40472" lon="5.46207">
        <ele>655.41</ele>
        <time>2022-05-13T12:14:42.743Z</time>
      </trkpt>
      <trkpt lat="43.40456" lon="5.46195">
        <ele>651.46</ele>
        <time>2022-05-13T12:15:08.881Z</time>
      </trkpt>
      <trkpt lat="43.4044" lon="5.46183">
        <ele>647.29</ele>
        <time>2022-05-13T12:15:27.843Z</time>
      </trkpt>
      <trkpt lat="43.40427" lon="5.46166">
        <ele>644.98</ele>
        <time>2022-05-13T12:15:46.731Z</time>
      </trkpt>
      <trkpt lat="43.40419" lon="5.46143">
        <ele>641.89</ele>
        <time>2022-05-13T12:16:07.389Z</time>
      </trkpt>
      <trkpt lat="43.40406" lon="5.46126">
        <ele>637.46</ele>
        <time>2022-05-13T12:16:22.604Z</time>
      </trkpt>
      <trkpt lat="43.4039" lon="5.46115">
        <ele>635.41</ele>
        <time>2022-05-13T12:16:43.685Z</time>
      </trkpt>
      <trkpt lat="43.40372" lon="5.4611">
        <ele>635.16</ele>
        <time>2022-05-13T12:17:06.403Z</time>
      </trkpt>
      <trkpt lat="43.40354" lon="5.46104">
        <ele>634.8</ele>
        <time>2022-05-13T12:17:32.870Z</time>
      </trkpt>
      <trkpt lat="43.40336" lon="5.46097">
        <ele>632.88</ele>
        <time>2022-05-13T12:17:53.186Z</time>
      </trkpt>
      <trkpt lat="43.40321" lon="5.46082">
        <ele>630.08</ele>
        <time>2022-05-13T12:18:09.784Z</time>
      </trkpt>
      <trkpt lat="43.40316" lon="5.46058">
        <ele>629.85</ele>
        <time>2022-05-13T12:18:30.164Z</time>
      </trkpt>
      <trkpt lat="43.40308" lon="5.46036">
        <ele>627.18</ele>
        <time>2022-05-13T12:18:57.414Z</time>
      </trkpt>
      <trkpt lat="43.40295" lon="5.46018">
        <ele>622.6</ele>
        <time>2022-05-13T12:19:50.269Z</time>
      </trkpt>
      <trkpt lat="43.40277" lon="5.46014">
        <ele>615.06</ele>
        <time>2022-05-13T12:20:20.401Z</time>
      </trkpt>
      <trkpt lat="43.4026" lon="5.46007">
        <ele>607.84</ele>
        <time>2022-05-13T12:20:52.000Z</time>
      </trkpt>
      <trkpt lat="43.40243" lon="5.46016">
        <ele>600.53</ele>
        <time>2022-05-13T12:23:15.342Z</time>
      </trkpt>
      <trkpt lat="43.40226" lon="5.46023">
        <ele>591.41</ele>
        <time>2022-05-13T12:23:33.999Z</time>
      </trkpt>
      <trkpt lat="43.40209" lon="5.46035">
        <ele>580.19</ele>
        <time>2022-05-13T12:23:52.999Z</time>
      </trkpt>
      <trkpt lat="43.40193" lon="5.46023">
        <ele>575.43</ele>
        <time>2022-05-13T12:24:20.125Z</time>
      </trkpt>
      <trkpt lat="43.40174" lon="5.46023">
        <ele>567.97</ele>
        <time>2022-05-13T12:24:53.202Z</time>
      </trkpt>
      <trkpt lat="43.40157" lon="5.46015">
        <ele>564.86</ele>
        <time>2022-05-13T12:25:10.393Z</time>
      </trkpt>
      <trkpt lat="43.40141" lon="5.46003">
        <ele>563.55</ele>
        <time>2022-05-13T12:25:28.177Z</time>
      </trkpt>
      <trkpt lat="43.40123" lon="5.45996">
        <ele>561.81</ele>
        <time>2022-05-13T12:25:41.706Z</time>
      </trkpt>
      <trkpt lat="43.40105" lon="5.45991">
        <ele>560.25</ele>
        <time>2022-05-13T12:25:54.999Z</time>
      </trkpt>
      <trkpt lat="43.40087" lon="5.45992">
        <ele>559.02</ele>
        <time>2022-05-13T12:26:11.227Z</time>
      </trkpt>
      <trkpt lat="43.40068" lon="5.45997">
        <ele>558.08</ele>
        <time>2022-05-13T12:26:28.729Z</time>
      </trkpt>
      <trkpt lat="43.40051" lon="5.46005">
        <ele>557.15</ele>
        <time>2022-05-13T12:26:47.808Z</time>
      </trkpt>
      <trkpt lat="43.40033" lon="5.46008">
        <ele>556.6</ele>
        <time>2022-05-13T12:27:07.464Z</time>
      </trkpt>
      <trkpt lat="43.40015" lon="5.46001">
        <ele>556.88</ele>
        <time>2022-05-13T12:27:26.884Z</time>
      </trkpt>
      <trkpt lat="43.40004" lon="5.45981">
        <ele>555.57</ele>
        <time>2022-05-13T12:27:52.161Z</time>
      </trkpt>
      <trkpt lat="43.39994" lon="5.45961">
        <ele>552.43</ele>
        <time>2022-05-13T12:28:10.952Z</time>
      </trkpt>
      <trkpt lat="43.39977" lon="5.45951">
        <ele>554.55</ele>
        <time>2022-05-13T12:28:47.999Z</time>
      </trkpt>
      <trkpt lat="43.3996" lon="5.45941">
        <ele>559.76</ele>
        <time>2022-05-13T12:29:09.925Z</time>
      </trkpt>
      <trkpt lat="43.39946" lon="5.45926">
        <ele>565.36</ele>
        <time>2022-05-13T12:29:29.552Z</time>
      </trkpt>
      <trkpt lat="43.39932" lon="5.45909">
        <ele>569.76</ele>
        <time>2022-05-13T12:30:00.589Z</time>
      </trkpt>
      <trkpt lat="43.39914" lon="5.45913">
        <ele>578.52</ele>
        <time>2022-05-13T12:30:25.885Z</time>
      </trkpt>
      <trkpt lat="43.39895" lon="5.45911">
        <ele>584.35</ele>
        <time>2022-05-13T12:30:51.684Z</time>
      </trkpt>
      <trkpt lat="43.39881" lon="5.45895">
        <ele>584.71</ele>
        <time>2022-05-13T12:31:05.200Z</time>
      </trkpt>
      <trkpt lat="43.39864" lon="5.45886">
        <ele>587.37</ele>
        <time>2022-05-13T12:31:23.532Z</time>
      </trkpt>
      <trkpt lat="43.3985" lon="5.45869">
        <ele>587.56</ele>
        <time>2022-05-13T12:31:42.026Z</time>
      </trkpt>
      <trkpt lat="43.39836" lon="5.45853">
        <ele>589.16</ele>
        <time>2022-05-13T12:32:07.149Z</time>
      </trkpt>
      <trkpt lat="43.39831" lon="5.45828">
        <ele>585.97</ele>
        <time>2022-05-13T12:32:28.064Z</time>
      </trkpt>
      <trkpt lat="43.39821" lon="5.45808">
        <ele>586.54</ele>
        <time>2022-05-13T12:32:43.669Z</time>
      </trkpt>
      <trkpt lat="43.39809" lon="5.45789">
        <ele>586.46</ele>
        <time>2022-05-13T12:33:06.186Z</time>
      </trkpt>
      <trkpt lat="43.39803" lon="5.45766">
        <ele>582.47</ele>
        <time>2022-05-13T12:33:27.000Z</time>
      </trkpt>
      <trkpt lat="43.39804" lon="5.45739">
        <ele>578.01</ele>
        <time>2022-05-13T12:36:22.866Z</time>
      </trkpt>
      <trkpt lat="43.39791" lon="5.45722">
        <ele>578.08</ele>
        <time>2022-05-13T12:36:34.884Z</time>
      </trkpt>
      <trkpt lat="43.39781" lon="5.457">
        <ele>576.54</ele>
        <time>2022-05-13T12:36:52.944Z</time>
      </trkpt>
      <trkpt lat="43.39787" lon="5.45677">
        <ele>576.16</ele>
        <time>2022-05-13T12:37:09.621Z</time>
      </trkpt>
      <trkpt lat="43.39788" lon="5.45652">
        <ele>576.74</ele>
        <time>2022-05-13T12:37:28.771Z</time>
      </trkpt>
      <trkpt lat="43.3978" lon="5.4563">
        <ele>579.55</ele>
        <time>2022-05-13T12:37:57.999Z</time>
      </trkpt>
      <trkpt lat="43.39777" lon="5.45605">
        <ele>584.16</ele>
        <time>2022-05-13T12:38:23.709Z</time>
      </trkpt>
      <trkpt lat="43.39771" lon="5.45581">
        <ele>588.84</ele>
        <time>2022-05-13T12:38:40.999Z</time>
      </trkpt>
      <trkpt lat="43.39763" lon="5.45559">
        <ele>593.11</ele>
        <time>2022-05-13T12:38:58.629Z</time>
      </trkpt>
      <trkpt lat="43.3975" lon="5.45542">
        <ele>597.23</ele>
        <time>2022-05-13T12:39:14.107Z</time>
      </trkpt>
      <trkpt lat="43.39743" lon="5.45518">
        <ele>599.94</ele>
        <time>2022-05-13T12:39:33.999Z</time>
      </trkpt>
      <trkpt lat="43.3974" lon="5.45493">
        <ele>602.57</ele>
        <time>2022-05-13T12:39:51.823Z</time>
      </trkpt>
      <trkpt lat="43.39739" lon="5.45467">
        <ele>605.1</ele>
        <time>2022-05-13T12:40:07.484Z</time>
      </trkpt>
      <trkpt lat="43.39742" lon="5.45441">
        <ele>607.32</ele>
        <time>2022-05-13T12:40:25.721Z</time>
      </trkpt>
      <trkpt lat="43.3974" lon="5.45417">
        <ele>609.45</ele>
        <time>2022-05-13T12:40:43.172Z</time>
      </trkpt>
      <trkpt lat="43.39741" lon="5.45392">
        <ele>611.86</ele>
        <time>2022-05-13T12:41:00.871Z</time>
      </trkpt>
      <trkpt lat="43.39751" lon="5.4537">
        <ele>611.95</ele>
        <time>2022-05-13T12:41:18.549Z</time>
      </trkpt>
      <trkpt lat="43.39755" lon="5.45346">
        <ele>611.5</ele>
        <time>2022-05-13T12:41:36.485Z</time>
      </trkpt>
      <trkpt lat="43.39756" lon="5.4532">
        <ele>610.22</ele>
        <time>2022-05-13T12:41:52.060Z</time>
      </trkpt>
      <trkpt lat="43.3975" lon="5.45296">
        <ele>609.14</ele>
        <time>2022-05-13T12:42:07.647Z</time>
      </trkpt>
      <trkpt lat="43.39747" lon="5.45272">
        <ele>605.94</ele>
        <time>2022-05-13T12:44:30.122Z</time>
      </trkpt>
      <trkpt lat="43.39741" lon="5.45249">
        <ele>602.84</ele>
        <time>2022-05-13T12:47:54.428Z</time>
      </trkpt>
      <trkpt lat="43.39755" lon="5.45234">
        <ele>595.81</ele>
        <time>2022-05-13T12:48:19.871Z</time>
      </trkpt>
      <trkpt lat="43.3976" lon="5.45209">
        <ele>588.79</ele>
        <time>2022-05-13T12:48:45.031Z</time>
      </trkpt>
      <trkpt lat="43.39763" lon="5.45185">
        <ele>582.88</ele>
        <time>2022-05-13T12:49:01.587Z</time>
      </trkpt>
      <trkpt lat="43.39767" lon="5.4516">
        <ele>577.63</ele>
        <time>2022-05-13T12:49:19.823Z</time>
      </trkpt>
      <trkpt lat="43.39776" lon="5.45137">
        <ele>571.79</ele>
        <time>2022-05-13T12:49:39.028Z</time>
      </trkpt>
      <trkpt lat="43.39775" lon="5.45112">
        <ele>567.56</ele>
        <time>2022-05-13T12:49:55.309Z</time>
      </trkpt>
      <trkpt lat="43.39773" lon="5.45087">
        <ele>565.01</ele>
        <time>2022-05-13T12:50:10.849Z</time>
      </trkpt>
      <trkpt lat="43.39773" lon="5.45062">
        <ele>564.78</ele>
        <time>2022-05-13T12:50:24.107Z</time>
      </trkpt>
      <trkpt lat="43.39768" lon="5.45036">
        <ele>568.38</ele>
        <time>2022-05-13T12:50:43.124Z</time>
      </trkpt>
      <trkpt lat="43.39764" lon="5.45012">
        <ele>572.32</ele>
        <time>2022-05-13T12:50:55.806Z</time>
      </trkpt>
      <trkpt lat="43.39759" lon="5.44987">
        <ele>576.15</ele>
        <time>2022-05-13T12:51:20.042Z</time>
      </trkpt>
      <trkpt lat="43.39755" lon="5.44963">
        <ele>580.06</ele>
        <time>2022-05-13T12:51:36.090Z</time>
      </trkpt>
      <trkpt lat="43.39753" lon="5.44938">
        <ele>582.94</ele>
        <time>2022-05-13T12:51:53.667Z</time>
      </trkpt>
      <trkpt lat="43.39755" lon="5.44913">
        <ele>583.79</ele>
        <time>2022-05-13T12:52:09.063Z</time>
      </trkpt>
      <trkpt lat="43.39758" lon="5.44888">
        <ele>582.54</ele>
        <time>2022-05-13T12:52:23.000Z</time>
      </trkpt>
      <trkpt lat="43.39764" lon="5.44864">
        <ele>580.12</ele>
        <time>2022-05-13T12:52:38.485Z</time>
      </trkpt>
      <trkpt lat="43.39775" lon="5.44843">
        <ele>577.91</ele>
        <time>2022-05-13T12:52:54.125Z</time>
      </trkpt>
      <trkpt lat="43.39779" lon="5.44819">
        <ele>577.38</ele>
        <time>2022-05-13T12:53:08.301Z</time>
      </trkpt>
      <trkpt lat="43.39789" lon="5.44797">
        <ele>579.29</ele>
        <time>2022-05-13T12:53:21.772Z</time>
      </trkpt>
      <trkpt lat="43.39797" lon="5.44774">
        <ele>583.52</ele>
        <time>2022-05-13T12:53:36.410Z</time>
      </trkpt>
      <trkpt lat="43.39802" lon="5.4475">
        <ele>586.19</ele>
        <time>2022-05-13T12:53:50.347Z</time>
      </trkpt>
      <trkpt lat="43.39799" lon="5.44724">
        <ele>581.78</ele>
        <time>2022-05-13T12:54:04.788Z</time>
      </trkpt>
      <trkpt lat="43.39796" lon="5.44699">
        <ele>575.44</ele>
        <time>2022-05-13T12:54:18.021Z</time>
      </trkpt>
      <trkpt lat="43.39794" lon="5.44674">
        <ele>570.82</ele>
        <time>2022-05-13T12:54:32.086Z</time>
      </trkpt>
      <trkpt lat="43.39784" lon="5.44652">
        <ele>571.14</ele>
        <time>2022-05-13T12:54:47.904Z</time>
      </trkpt>
      <trkpt lat="43.39777" lon="5.44629">
        <ele>575.12</ele>
        <time>2022-05-13T12:55:04.831Z</time>
      </trkpt>
      <trkpt lat="43.39768" lon="5.44607">
        <ele>581.35</ele>
        <time>2022-05-13T12:55:27.730Z</time>
      </trkpt>
      <trkpt lat="43.39758" lon="5.44586">
        <ele>587.06</ele>
        <time>2022-05-13T12:55:47.485Z</time>
      </trkpt>
      <trkpt lat="43.39747" lon="5.44566">
        <ele>590.05</ele>
        <time>2022-05-13T12:56:05.999Z</time>
      </trkpt>
      <trkpt lat="43.39738" lon="5.44544">
        <ele>590.74</ele>
        <time>2022-05-13T12:56:31.101Z</time>
      </trkpt>
      <trkpt lat="43.39725" lon="5.44528">
        <ele>592.02</ele>
        <time>2022-05-13T12:56:49.948Z</time>
      </trkpt>
      <trkpt lat="43.39711" lon="5.4451">
        <ele>594.13</ele>
        <time>2022-05-13T12:57:11.034Z</time>
      </trkpt>
      <trkpt lat="43.39702" lon="5.44488">
        <ele>595.42</ele>
        <time>2022-05-13T12:57:30.845Z</time>
      </trkpt>
      <trkpt lat="43.39696" lon="5.44464">
        <ele>594.02</ele>
        <time>2022-05-13T12:57:44.505Z</time>
      </trkpt>
      <trkpt lat="43.3969" lon="5.4444">
        <ele>591.61</ele>
        <time>2022-05-13T12:57:59.041Z</time>
      </trkpt>
      <trkpt lat="43.39683" lon="5.44416">
        <ele>589.88</ele>
        <time>2022-05-13T12:58:17.810Z</time>
      </trkpt>
      <trkpt lat="43.3968" lon="5.44392">
        <ele>588.02</ele>
        <time>2022-05-13T12:58:32.132Z</time>
      </trkpt>
      <trkpt lat="43.39676" lon="5.44368">
        <ele>586.5</ele>
        <time>2022-05-13T12:58:47.747Z</time>
      </trkpt>
      <trkpt lat="43.39672" lon="5.44344">
        <ele>584.69</ele>
        <time>2022-05-13T12:59:04.087Z</time>
      </trkpt>
      <trkpt lat="43.39667" lon="5.44319">
        <ele>582.66</ele>
        <time>2022-05-13T12:59:20.999Z</time>
      </trkpt>
      <trkpt lat="43.39658" lon="5.44297">
        <ele>580.23</ele>
        <time>2022-05-13T12:59:40.852Z</time>
      </trkpt>
      <trkpt lat="43.39655" lon="5.44272">
        <ele>577.87</ele>
        <time>2022-05-13T12:59:56.190Z</time>
      </trkpt>
      <trkpt lat="43.39648" lon="5.44248">
        <ele>575.58</ele>
        <time>2022-05-13T13:00:16.070Z</time>
      </trkpt>
      <trkpt lat="43.39645" lon="5.44223">
        <ele>574.02</ele>
        <time>2022-05-13T13:00:31.736Z</time>
      </trkpt>
      <trkpt lat="43.39639" lon="5.442">
        <ele>572.55</ele>
        <time>2022-05-13T13:00:48.447Z</time>
      </trkpt>
      <trkpt lat="43.39637" lon="5.44175">
        <ele>572.39</ele>
        <time>2022-05-13T13:01:06.566Z</time>
      </trkpt>
      <trkpt lat="43.39634" lon="5.4415">
        <ele>573.42</ele>
        <time>2022-05-13T13:01:23.791Z</time>
      </trkpt>
      <trkpt lat="43.39627" lon="5.44126">
        <ele>575.84</ele>
        <time>2022-05-13T13:01:43.126Z</time>
      </trkpt>
      <trkpt lat="43.39618" lon="5.44104">
        <ele>580.15</ele>
        <time>2022-05-13T13:02:05.000Z</time>
      </trkpt>
      <trkpt lat="43.39614" lon="5.44079">
        <ele>585.86</ele>
        <time>2022-05-13T13:02:25.000Z</time>
      </trkpt>
      <trkpt lat="43.3961" lon="5.44054">
        <ele>592.56</ele>
        <time>2022-05-13T13:02:50.673Z</time>
      </trkpt>
      <trkpt lat="43.39604" lon="5.44031">
        <ele>600</ele>
        <time>2022-05-13T13:03:19.889Z</time>
      </trkpt>
      <trkpt lat="43.39597" lon="5.44008">
        <ele>607.11</ele>
        <time>2022-05-13T13:03:46.044Z</time>
      </trkpt>
      <trkpt lat="43.39599" lon="5.43983">
        <ele>613.05</ele>
        <time>2022-05-13T13:04:08.000Z</time>
      </trkpt>
      <trkpt lat="43.39596" lon="5.43958">
        <ele>619.62</ele>
        <time>2022-05-13T13:04:30.190Z</time>
      </trkpt>
      <trkpt lat="43.3959" lon="5.43935">
        <ele>624.57</ele>
        <time>2022-05-13T13:04:52.644Z</time>
      </trkpt>
      <trkpt lat="43.39578" lon="5.43916">
        <ele>625.9</ele>
        <time>2022-05-13T13:05:12.601Z</time>
      </trkpt>
      <trkpt lat="43.39564" lon="5.43901">
        <ele>623.52</ele>
        <time>2022-05-13T13:05:29.833Z</time>
      </trkpt>
      <trkpt lat="43.39554" lon="5.43879">
        <ele>620.11</ele>
        <time>2022-05-13T13:05:43.848Z</time>
      </trkpt>
      <trkpt lat="43.39538" lon="5.43866">
        <ele>617.76</ele>
        <time>2022-05-13T13:06:00.032Z</time>
      </trkpt>
      <trkpt lat="43.39526" lon="5.43849">
        <ele>616.76</ele>
        <time>2022-05-13T13:06:15.165Z</time>
      </trkpt>
      <trkpt lat="43.3951" lon="5.43836">
        <ele>615.97</ele>
        <time>2022-05-13T13:06:31.603Z</time>
      </trkpt>
      <trkpt lat="43.39493" lon="5.43824">
        <ele>613.41</ele>
        <time>2022-05-13T13:06:48.465Z</time>
      </trkpt>
      <trkpt lat="43.39477" lon="5.43814">
        <ele>608.29</ele>
        <time>2022-05-13T13:07:07.070Z</time>
      </trkpt>
      <trkpt lat="43.39459" lon="5.43808">
        <ele>602.04</ele>
        <time>2022-05-13T13:07:25.729Z</time>
      </trkpt>
      <trkpt lat="43.39442" lon="5.43798">
        <ele>595.66</ele>
        <time>2022-05-13T13:07:42.508Z</time>
      </trkpt>
      <trkpt lat="43.39425" lon="5.43789">
        <ele>590.34</ele>
        <time>2022-05-13T13:08:00.884Z</time>
      </trkpt>
      <trkpt lat="43.39407" lon="5.43791">
        <ele>586.94</ele>
        <time>2022-05-13T13:08:18.499Z</time>
      </trkpt>
      <trkpt lat="43.39389" lon="5.43784">
        <ele>583.56</ele>
        <time>2022-05-13T13:08:40.091Z</time>
      </trkpt>
      <trkpt lat="43.39371" lon="5.43783">
        <ele>580.75</ele>
        <time>2022-05-13T13:08:58.000Z</time>
      </trkpt>
      <trkpt lat="43.39353" lon="5.43779">
        <ele>579.66</ele>
        <time>2022-05-13T13:09:12.385Z</time>
      </trkpt>
      <trkpt lat="43.39334" lon="5.43778">
        <ele>580.49</ele>
        <time>2022-05-13T13:11:15.112Z</time>
      </trkpt>
      <trkpt lat="43.39316" lon="5.43775">
        <ele>584.44</ele>
        <time>2022-05-13T13:11:36.708Z</time>
      </trkpt>
      <trkpt lat="43.39301" lon="5.4376">
        <ele>590.91</ele>
        <time>2022-05-13T13:11:59.999Z</time>
      </trkpt>
      <trkpt lat="43.39284" lon="5.43757">
        <ele>598.47</ele>
        <time>2022-05-13T13:12:35.999Z</time>
      </trkpt>
      <trkpt lat="43.39266" lon="5.43756">
        <ele>606</ele>
        <time>2022-05-13T13:13:15.999Z</time>
      </trkpt>
      <trkpt lat="43.39247" lon="5.43756">
        <ele>612.31</ele>
        <time>2022-05-13T13:13:48.705Z</time>
      </trkpt>
      <trkpt lat="43.39229" lon="5.4375">
        <ele>618.86</ele>
        <time>2022-05-13T13:14:18.999Z</time>
      </trkpt>
      <trkpt lat="43.39213" lon="5.4374">
        <ele>624.33</ele>
        <time>2022-05-13T13:14:54.107Z</time>
      </trkpt>
      <trkpt lat="43.39197" lon="5.43729">
        <ele>627.67</ele>
        <time>2022-05-13T13:15:19.889Z</time>
      </trkpt>
      <trkpt lat="43.39182" lon="5.43744">
        <ele>631.96</ele>
        <time>2022-05-13T13:19:04.432Z</time>
      </trkpt>
      <trkpt lat="43.39174" lon="5.43767">
        <ele>632.98</ele>
        <time>2022-05-13T13:19:21.565Z</time>
      </trkpt>
      <trkpt lat="43.3916" lon="5.43784">
        <ele>633.49</ele>
        <time>2022-05-13T13:20:05.133Z</time>
      </trkpt>
      <trkpt lat="43.39144" lon="5.43797">
        <ele>634.81</ele>
        <time>2022-05-13T13:20:21.965Z</time>
      </trkpt>
      <trkpt lat="43.39127" lon="5.43807">
        <ele>637.98</ele>
        <time>2022-05-13T13:20:45.125Z</time>
      </trkpt>
      <trkpt lat="43.39109" lon="5.43818">
        <ele>641.95</ele>
        <time>2022-05-13T13:21:04.263Z</time>
      </trkpt>
      <trkpt lat="43.3911" lon="5.43843">
        <ele>642.32</ele>
        <time>2022-05-13T13:21:23.646Z</time>
      </trkpt>
      <trkpt lat="43.39091" lon="5.43839">
        <ele>645.07</ele>
        <time>2022-05-13T13:21:43.211Z</time>
      </trkpt>
      <trkpt lat="43.39074" lon="5.4383">
        <ele>643.65</ele>
        <time>2022-05-13T13:21:58.346Z</time>
      </trkpt>
      <trkpt lat="43.39057" lon="5.43822">
        <ele>637.98</ele>
        <time>2022-05-13T13:22:14.486Z</time>
      </trkpt>
      <trkpt lat="43.39047" lon="5.43801">
        <ele>630.51</ele>
        <time>2022-05-13T13:22:30.504Z</time>
      </trkpt>
      <trkpt lat="43.39031" lon="5.43814">
        <ele>626.83</ele>
        <time>2022-05-13T13:22:44.905Z</time>
      </trkpt>
      <trkpt lat="43.39014" lon="5.43804">
        <ele>619.62</ele>
        <time>2022-05-13T13:23:03.491Z</time>
      </trkpt>
      <trkpt lat="43.38996" lon="5.43804">
        <ele>614.65</ele>
        <time>2022-05-13T13:23:19.306Z</time>
      </trkpt>
      <trkpt lat="43.38978" lon="5.43794">
        <ele>612.6</ele>
        <time>2022-05-13T13:23:37.865Z</time>
      </trkpt>
      <trkpt lat="43.38963" lon="5.43781">
        <ele>614.09</ele>
        <time>2022-05-13T13:23:53.823Z</time>
      </trkpt>
      <trkpt lat="43.38949" lon="5.43765">
        <ele>617.62</ele>
        <time>2022-05-13T13:24:44.148Z</time>
      </trkpt>
      <trkpt lat="43.38931" lon="5.43759">
        <ele>619.34</ele>
        <time>2022-05-13T13:26:25.627Z</time>
      </trkpt>
      <trkpt lat="43.38913" lon="5.4375">
        <ele>618.4</ele>
        <time>2022-05-13T13:26:46.999Z</time>
      </trkpt>
      <trkpt lat="43.38897" lon="5.43738">
        <ele>614.09</ele>
        <time>2022-05-13T13:27:05.883Z</time>
      </trkpt>
      <trkpt lat="43.3888" lon="5.43731">
        <ele>608.49</ele>
        <time>2022-05-13T13:27:25.028Z</time>
      </trkpt>
      <trkpt lat="43.38863" lon="5.4372">
        <ele>604.87</ele>
        <time>2022-05-13T13:27:41.812Z</time>
      </trkpt>
      <trkpt lat="43.38849" lon="5.43704">
        <ele>605.92</ele>
        <time>2022-05-13T13:27:58.999Z</time>
      </trkpt>
      <trkpt lat="43.38837" lon="5.43685">
        <ele>609.4</ele>
        <time>2022-05-13T13:28:18.130Z</time>
      </trkpt>
      <trkpt lat="43.38824" lon="5.43665">
        <ele>609.46</ele>
        <time>2022-05-13T13:28:36.148Z</time>
      </trkpt>
      <trkpt lat="43.38815" lon="5.43644">
        <ele>604.73</ele>
        <time>2022-05-13T13:29:05.181Z</time>
      </trkpt>
      <trkpt lat="43.38803" lon="5.43625">
        <ele>599.01</ele>
        <time>2022-05-13T13:29:24.104Z</time>
      </trkpt>
      <trkpt lat="43.38786" lon="5.43615">
        <ele>597.41</ele>
        <time>2022-05-13T13:29:56.106Z</time>
      </trkpt>
      <trkpt lat="43.38771" lon="5.43603">
        <ele>598.6</ele>
        <time>2022-05-13T13:30:14.623Z</time>
      </trkpt>
      <trkpt lat="43.38754" lon="5.43592">
        <ele>600.24</ele>
        <time>2022-05-13T13:30:30.999Z</time>
      </trkpt>
      <trkpt lat="43.38736" lon="5.43588">
        <ele>597.3</ele>
        <time>2022-05-13T13:30:50.032Z</time>
      </trkpt>
      <trkpt lat="43.38726" lon="5.43568">
        <ele>595.02</ele>
        <time>2022-05-13T13:31:06.868Z</time>
      </trkpt>
      <trkpt lat="43.3872" lon="5.43544">
        <ele>591.27</ele>
        <time>2022-05-13T13:31:31.016Z</time>
      </trkpt>
      <trkpt lat="43.38721" lon="5.43519">
        <ele>588.66</ele>
        <time>2022-05-13T13:31:44.867Z</time>
      </trkpt>
      <trkpt lat="43.38718" lon="5.43495">
        <ele>585.03</ele>
        <time>2022-05-13T13:32:01.127Z</time>
      </trkpt>
      <trkpt lat="43.3871" lon="5.43472">
        <ele>580.13</ele>
        <time>2022-05-13T13:32:22.515Z</time>
      </trkpt>
      <trkpt lat="43.38704" lon="5.43449">
        <ele>576.71</ele>
        <time>2022-05-13T13:32:42.999Z</time>
      </trkpt>
      <trkpt lat="43.38695" lon="5.43427">
        <ele>573.61</ele>
        <time>2022-05-13T13:33:08.745Z</time>
      </trkpt>
      <trkpt lat="43.38686" lon="5.43405">
        <ele>571.49</ele>
        <time>2022-05-13T13:33:22.503Z</time>
      </trkpt>
      <trkpt lat="43.38685" lon="5.4338">
        <ele>571.33</ele>
        <time>2022-05-13T13:33:38.026Z</time>
      </trkpt>
      <trkpt lat="43.38685" lon="5.43355">
        <ele>571.59</ele>
        <time>2022-05-13T13:33:57.477Z</time>
      </trkpt>
      <trkpt lat="43.38682" lon="5.43331">
        <ele>573.17</ele>
        <time>2022-05-13T13:34:12.149Z</time>
      </trkpt>
      <trkpt lat="43.38668" lon="5.43314">
        <ele>575.76</ele>
        <time>2022-05-13T13:34:32.110Z</time>
      </trkpt>
      <trkpt lat="43.38659" lon="5.43293">
        <ele>579.5</ele>
        <time>2022-05-13T13:34:47.545Z</time>
      </trkpt>
      <trkpt lat="43.38647" lon="5.43274">
        <ele>580.13</ele>
        <time>2022-05-13T13:35:03.947Z</time>
      </trkpt>
      <trkpt lat="43.38633" lon="5.43257">
        <ele>576.5</ele>
        <time>2022-05-13T13:35:16.000Z</time>
      </trkpt>
      <trkpt lat="43.38619" lon="5.43239">
        <ele>570.09</ele>
        <time>2022-05-13T13:35:31.000Z</time>
      </trkpt>
      <trkpt lat="43.38611" lon="5.43217">
        <ele>566.68</ele>
        <time>2022-05-13T13:35:47.040Z</time>
      </trkpt>
      <trkpt lat="43.38603" lon="5.43194">
        <ele>564.41</ele>
        <time>2022-05-13T13:36:00.848Z</time>
      </trkpt>
      <trkpt lat="43.38597" lon="5.43169">
        <ele>563.64</ele>
        <time>2022-05-13T13:36:16.927Z</time>
      </trkpt>
      <trkpt lat="43.38588" lon="5.43147">
        <ele>562.85</ele>
        <time>2022-05-13T13:36:29.804Z</time>
      </trkpt>
      <trkpt lat="43.38575" lon="5.43131">
        <ele>562.01</ele>
        <time>2022-05-13T13:36:46.000Z</time>
      </trkpt>
      <trkpt lat="43.3856" lon="5.43115">
        <ele>561.95</ele>
        <time>2022-05-13T13:37:05.434Z</time>
      </trkpt>
      <trkpt lat="43.38552" lon="5.43093">
        <ele>563.13</ele>
        <time>2022-05-13T13:37:23.000Z</time>
      </trkpt>
      <trkpt lat="43.38537" lon="5.43077">
        <ele>565.7</ele>
        <time>2022-05-13T13:37:46.747Z</time>
      </trkpt>
      <trkpt lat="43.38526" lon="5.43057">
        <ele>567.47</ele>
        <time>2022-05-13T13:38:07.882Z</time>
      </trkpt>
      <trkpt lat="43.38519" lon="5.43034">
        <ele>567.46</ele>
        <time>2022-05-13T13:38:24.040Z</time>
      </trkpt>
      <trkpt lat="43.38512" lon="5.43011">
        <ele>567.25</ele>
        <time>2022-05-13T13:38:40.091Z</time>
      </trkpt>
      <trkpt lat="43.38505" lon="5.42988">
        <ele>567.57</ele>
        <time>2022-05-13T13:38:54.000Z</time>
      </trkpt>
      <trkpt lat="43.38503" lon="5.42963">
        <ele>567.85</ele>
        <time>2022-05-13T13:39:08.746Z</time>
      </trkpt>
      <trkpt lat="43.38501" lon="5.42938">
        <ele>568.58</ele>
        <time>2022-05-13T13:39:23.425Z</time>
      </trkpt>
      <trkpt lat="43.38501" lon="5.42913">
        <ele>570.39</ele>
        <time>2022-05-13T13:39:43.000Z</time>
      </trkpt>
      <trkpt lat="43.38484" lon="5.42904">
        <ele>570.08</ele>
        <time>2022-05-13T13:39:58.460Z</time>
      </trkpt>
      <trkpt lat="43.3847" lon="5.42888">
        <ele>570.66</ele>
        <time>2022-05-13T13:40:17.070Z</time>
      </trkpt>
      <trkpt lat="43.38454" lon="5.42875">
        <ele>570.53</ele>
        <time>2022-05-13T13:40:33.689Z</time>
      </trkpt>
      <trkpt lat="43.38436" lon="5.42872">
        <ele>566.47</ele>
        <time>2022-05-13T13:40:53.750Z</time>
      </trkpt>
      <trkpt lat="43.38418" lon="5.42878">
        <ele>558.49</ele>
        <time>2022-05-13T13:41:14.208Z</time>
      </trkpt>
      <trkpt lat="43.38401" lon="5.42871">
        <ele>554.89</ele>
        <time>2022-05-13T13:41:32.017Z</time>
      </trkpt>
      <trkpt lat="43.38388" lon="5.42853">
        <ele>555.73</ele>
        <time>2022-05-13T13:41:52.285Z</time>
      </trkpt>
      <trkpt lat="43.38381" lon="5.42829">
        <ele>557.45</ele>
        <time>2022-05-13T13:42:08.999Z</time>
      </trkpt>
      <trkpt lat="43.38374" lon="5.42807">
        <ele>555.12</ele>
        <time>2022-05-13T13:42:25.828Z</time>
      </trkpt>
      <trkpt lat="43.38369" lon="5.42783">
        <ele>553.12</ele>
        <time>2022-05-13T13:42:43.041Z</time>
      </trkpt>
      <trkpt lat="43.38362" lon="5.4276">
        <ele>549.35</ele>
        <time>2022-05-13T13:43:00.666Z</time>
      </trkpt>
      <trkpt lat="43.38352" lon="5.42739">
        <ele>546.13</ele>
        <time>2022-05-13T13:43:19.664Z</time>
      </trkpt>
      <trkpt lat="43.38341" lon="5.42718">
        <ele>544.77</ele>
        <time>2022-05-13T13:43:37.931Z</time>
      </trkpt>
      <trkpt lat="43.38334" lon="5.42694">
        <ele>548.92</ele>
        <time>2022-05-13T13:43:55.109Z</time>
      </trkpt>
      <trkpt lat="43.38324" lon="5.42673">
        <ele>551.27</ele>
        <time>2022-05-13T13:44:11.591Z</time>
      </trkpt>
      <trkpt lat="43.38316" lon="5.4265">
        <ele>553.54</ele>
        <time>2022-05-13T13:44:28.021Z</time>
      </trkpt>
      <trkpt lat="43.38306" lon="5.42629">
        <ele>553.27</ele>
        <time>2022-05-13T13:44:43.627Z</time>
      </trkpt>
      <trkpt lat="43.38299" lon="5.42606">
        <ele>553.04</ele>
        <time>2022-05-13T13:44:59.527Z</time>
      </trkpt>
      <trkpt lat="43.38298" lon="5.42581">
        <ele>556</ele>
        <time>2022-05-13T13:45:14.041Z</time>
      </trkpt>
      <trkpt lat="43.38296" lon="5.42556">
        <ele>557.41</ele>
        <time>2022-05-13T13:45:28.563Z</time>
      </trkpt>
      <trkpt lat="43.38295" lon="5.42532">
        <ele>558.34</ele>
        <time>2022-05-13T13:45:43.843Z</time>
      </trkpt>
      <trkpt lat="43.38292" lon="5.42507">
        <ele>555.37</ele>
        <time>2022-05-13T13:45:59.949Z</time>
      </trkpt>
      <trkpt lat="43.38292" lon="5.42481">
        <ele>553.15</ele>
        <time>2022-05-13T13:46:15.608Z</time>
      </trkpt>
      <trkpt lat="43.38289" lon="5.42456">
        <ele>547.26</ele>
        <time>2022-05-13T13:46:30.032Z</time>
      </trkpt>
      <trkpt lat="43.38287" lon="5.42431">
        <ele>541.32</ele>
        <time>2022-05-13T13:46:47.722Z</time>
      </trkpt>
      <trkpt lat="43.38286" lon="5.42405">
        <ele>537.69</ele>
        <time>2022-05-13T13:47:02.880Z</time>
      </trkpt>
      <trkpt lat="43.38283" lon="5.4238">
        <ele>534.04</ele>
        <time>2022-05-13T13:47:19.849Z</time>
      </trkpt>
      <trkpt lat="43.38279" lon="5.42356">
        <ele>530.92</ele>
        <time>2022-05-13T13:47:34.749Z</time>
      </trkpt>
      <trkpt lat="43.38274" lon="5.42331">
        <ele>528.71</ele>
        <time>2022-05-13T13:47:50.999Z</time>
      </trkpt>
      <trkpt lat="43.38283" lon="5.42308">
        <ele>528.23</ele>
        <time>2022-05-13T13:51:23.469Z</time>
      </trkpt>
      <trkpt lat="43.38293" lon="5.42287">
        <ele>525.86</ele>
        <time>2022-05-13T13:51:40.033Z</time>
      </trkpt>
      <trkpt lat="43.38307" lon="5.42272">
        <ele>521.04</ele>
        <time>2022-05-13T13:52:05.666Z</time>
      </trkpt>
      <trkpt lat="43.38323" lon="5.42261">
        <ele>515.65</ele>
        <time>2022-05-13T13:52:43.581Z</time>
      </trkpt>
      <trkpt lat="43.38336" lon="5.42243">
        <ele>510.37</ele>
        <time>2022-05-13T13:53:14.933Z</time>
      </trkpt>
      <trkpt lat="43.38351" lon="5.42229">
        <ele>506.33</ele>
        <time>2022-05-13T13:53:40.426Z</time>
      </trkpt>
      <trkpt lat="43.38362" lon="5.42209">
        <ele>502.2</ele>
        <time>2022-05-13T13:53:59.563Z</time>
      </trkpt>
      <trkpt lat="43.3838" lon="5.42202">
        <ele>498.95</ele>
        <time>2022-05-13T13:54:19.651Z</time>
      </trkpt>
      <trkpt lat="43.3838" lon="5.42177">
        <ele>494.98</ele>
        <time>2022-05-13T13:55:33.390Z</time>
      </trkpt>
      <trkpt lat="43.38379" lon="5.42153">
        <ele>491.21</ele>
        <time>2022-05-13T13:55:49.767Z</time>
      </trkpt>
      <trkpt lat="43.38382" lon="5.42128">
        <ele>486.99</ele>
        <time>2022-05-13T13:56:08.000Z</time>
      </trkpt>
      <trkpt lat="43.38381" lon="5.42103">
        <ele>483.44</ele>
        <time>2022-05-13T13:56:31.130Z</time>
      </trkpt>
      <trkpt lat="43.38372" lon="5.42081">
        <ele>480.34</ele>
        <time>2022-05-13T13:56:51.668Z</time>
      </trkpt>
      <trkpt lat="43.38369" lon="5.42056">
        <ele>475.58</ele>
        <time>2022-05-13T13:57:06.966Z</time>
      </trkpt>
      <trkpt lat="43.38364" lon="5.42031">
        <ele>470.1</ele>
        <time>2022-05-13T13:57:28.083Z</time>
      </trkpt>
      <trkpt lat="43.38357" lon="5.42008">
        <ele>464.86</ele>
        <time>2022-05-13T13:57:45.124Z</time>
      </trkpt>
      <trkpt lat="43.38347" lon="5.41986">
        <ele>460.17</ele>
        <time>2022-05-13T13:58:06.308Z</time>
      </trkpt>
      <trkpt lat="43.38339" lon="5.41964">
        <ele>455.95</ele>
        <time>2022-05-13T13:58:24.569Z</time>
      </trkpt>
      <trkpt lat="43.38331" lon="5.41941">
        <ele>452.22</ele>
        <time>2022-05-13T13:58:40.044Z</time>
      </trkpt>
      <trkpt lat="43.38319" lon="5.41923">
        <ele>448.31</ele>
        <time>2022-05-13T13:58:57.836Z</time>
      </trkpt>
      <trkpt lat="43.38309" lon="5.41902">
        <ele>445.83</ele>
        <time>2022-05-13T13:59:13.042Z</time>
      </trkpt>
      <trkpt lat="43.38301" lon="5.4188">
        <ele>445.12</ele>
        <time>2022-05-13T13:59:24.710Z</time>
      </trkpt>
      <trkpt lat="43.38292" lon="5.41858">
        <ele>444.25</ele>
        <time>2022-05-13T13:59:40.629Z</time>
      </trkpt>
      <trkpt lat="43.38284" lon="5.41834">
        <ele>443.36</ele>
        <time>2022-05-13T13:59:58.016Z</time>
      </trkpt>
      <trkpt lat="43.38273" lon="5.41814">
        <ele>441.16</ele>
        <time>2022-05-13T14:00:15.805Z</time>
      </trkpt>
      <trkpt lat="43.38258" lon="5.41799">
        <ele>438.83</ele>
        <time>2022-05-13T14:00:31.863Z</time>
      </trkpt>
      <trkpt lat="43.38248" lon="5.41777">
        <ele>439.9</ele>
        <time>2022-05-13T14:00:47.059Z</time>
      </trkpt>
      <trkpt lat="43.38236" lon="5.41757">
        <ele>439.53</ele>
        <time>2022-05-13T14:01:04.130Z</time>
      </trkpt>
      <trkpt lat="43.38225" lon="5.41737">
        <ele>437.53</ele>
        <time>2022-05-13T14:01:19.999Z</time>
      </trkpt>
      <trkpt lat="43.38209" lon="5.41724">
        <ele>434.84</ele>
        <time>2022-05-13T14:01:36.469Z</time>
      </trkpt>
      <trkpt lat="43.38192" lon="5.41714">
        <ele>432.64</ele>
        <time>2022-05-13T14:01:52.086Z</time>
      </trkpt>
      <trkpt lat="43.38178" lon="5.41699">
        <ele>430.83</ele>
        <time>2022-05-13T14:02:06.999Z</time>
      </trkpt>
      <trkpt lat="43.38163" lon="5.41686">
        <ele>428.83</ele>
        <time>2022-05-13T14:02:22.751Z</time>
      </trkpt>
      <trkpt lat="43.38149" lon="5.41668">
        <ele>426.46</ele>
        <time>2022-05-13T14:02:41.426Z</time>
      </trkpt>
      <trkpt lat="43.38131" lon="5.41673">
        <ele>423.96</ele>
        <time>2022-05-13T14:02:58.185Z</time>
      </trkpt>
      <trkpt lat="43.38115" lon="5.41684">
        <ele>420.15</ele>
        <time>2022-05-13T14:03:12.999Z</time>
      </trkpt>
      <trkpt lat="43.38098" lon="5.41673">
        <ele>417.26</ele>
        <time>2022-05-13T14:03:31.379Z</time>
      </trkpt>
      <trkpt lat="43.38081" lon="5.41665">
        <ele>413.4</ele>
        <time>2022-05-13T14:03:49.609Z</time>
      </trkpt>
      <trkpt lat="43.38063" lon="5.41659">
        <ele>408.67</ele>
        <time>2022-05-13T14:04:08.999Z</time>
      </trkpt>
      <trkpt lat="43.38045" lon="5.41653">
        <ele>403.55</ele>
        <time>2022-05-13T14:04:27.805Z</time>
      </trkpt>
      <trkpt lat="43.38028" lon="5.41645">
        <ele>398.2</ele>
        <time>2022-05-13T14:04:45.804Z</time>
      </trkpt>
      <trkpt lat="43.38013" lon="5.41629">
        <ele>393.71</ele>
        <time>2022-05-13T14:05:04.086Z</time>
      </trkpt>
      <trkpt lat="43.37995" lon="5.41633">
        <ele>388.98</ele>
        <time>2022-05-13T14:05:21.711Z</time>
      </trkpt>
      <trkpt lat="43.3799" lon="5.41609">
        <ele>387.71</ele>
        <time>2022-05-13T14:05:37.145Z</time>
      </trkpt>
      <trkpt lat="43.37972" lon="5.41601">
        <ele>384.56</ele>
        <time>2022-05-13T14:05:52.826Z</time>
      </trkpt>
      <trkpt lat="43.37955" lon="5.41592">
        <ele>382.43</ele>
        <time>2022-05-13T14:06:08.944Z</time>
      </trkpt>
      <trkpt lat="43.37942" lon="5.41575">
        <ele>380.29</ele>
        <time>2022-05-13T14:06:27.024Z</time>
      </trkpt>
      <trkpt lat="43.37924" lon="5.4157">
        <ele>377.6</ele>
        <time>2022-05-13T14:06:50.191Z</time>
      </trkpt>
      <trkpt lat="43.37906" lon="5.41565">
        <ele>373.98</ele>
        <time>2022-05-13T14:07:06.771Z</time>
      </trkpt>
      <trkpt lat="43.37893" lon="5.41547">
        <ele>370.02</ele>
        <time>2022-05-13T14:07:22.006Z</time>
      </trkpt>
      <trkpt lat="43.37879" lon="5.41531">
        <ele>367.73</ele>
        <time>2022-05-13T14:07:36.985Z</time>
      </trkpt>
      <trkpt lat="43.37861" lon="5.41526">
        <ele>366.92</ele>
        <time>2022-05-13T14:07:50.589Z</time>
      </trkpt>
      <trkpt lat="43.37845" lon="5.41515">
        <ele>367.49</ele>
        <time>2022-05-13T14:08:03.748Z</time>
      </trkpt>
      <trkpt lat="43.37828" lon="5.41505">
        <ele>367.86</ele>
        <time>2022-05-13T14:08:17.542Z</time>
      </trkpt>
      <trkpt lat="43.37813" lon="5.41493">
        <ele>367.04</ele>
        <time>2022-05-13T14:08:31.791Z</time>
      </trkpt>
      <trkpt lat="43.37796" lon="5.41482">
        <ele>365.36</ele>
        <time>2022-05-13T14:08:47.628Z</time>
      </trkpt>
      <trkpt lat="43.37778" lon="5.41477">
        <ele>364.59</ele>
        <time>2022-05-13T14:09:01.806Z</time>
      </trkpt>
      <trkpt lat="43.3776" lon="5.41472">
        <ele>364.21</ele>
        <time>2022-05-13T14:09:15.000Z</time>
      </trkpt>
      <trkpt lat="43.37741" lon="5.41472">
        <ele>363.9</ele>
        <time>2022-05-13T14:09:29.183Z</time>
      </trkpt>
      <trkpt lat="43.37722" lon="5.41472">
        <ele>363.34</ele>
        <time>2022-05-13T14:09:44.204Z</time>
      </trkpt>
      <trkpt lat="43.37704" lon="5.41466">
        <ele>362.76</ele>
        <time>2022-05-13T14:09:59.600Z</time>
      </trkpt>
      <trkpt lat="43.37688" lon="5.41453">
        <ele>362.15</ele>
        <time>2022-05-13T14:10:13.831Z</time>
      </trkpt>
      <trkpt lat="43.37673" lon="5.41438">
        <ele>361.2</ele>
        <time>2022-05-13T14:10:27.019Z</time>
      </trkpt>
      <trkpt lat="43.37659" lon="5.41422">
        <ele>359.74</ele>
        <time>2022-05-13T14:10:41.128Z</time>
      </trkpt>
      <trkpt lat="43.37643" lon="5.41406">
        <ele>357.63</ele>
        <time>2022-05-13T14:10:55.905Z</time>
      </trkpt>
      <trkpt lat="43.37629" lon="5.4139">
        <ele>355.35</ele>
        <time>2022-05-13T14:11:10.729Z</time>
      </trkpt>
      <trkpt lat="43.37614" lon="5.41376">
        <ele>353.54</ele>
        <time>2022-05-13T14:11:24.000Z</time>
      </trkpt>
      <trkpt lat="43.37599" lon="5.4136">
        <ele>352.27</ele>
        <time>2022-05-13T14:11:37.306Z</time>
      </trkpt>
      <trkpt lat="43.37584" lon="5.41345">
        <ele>351.4</ele>
        <time>2022-05-13T14:11:51.964Z</time>
      </trkpt>
      <trkpt lat="43.37569" lon="5.41332">
        <ele>350.33</ele>
        <time>2022-05-13T14:12:05.362Z</time>
      </trkpt>
      <trkpt lat="43.37553" lon="5.4132">
        <ele>348.75</ele>
        <time>2022-05-13T14:12:19.542Z</time>
      </trkpt>
      <trkpt lat="43.37535" lon="5.41313">
        <ele>346.77</ele>
        <time>2022-05-13T14:12:33.653Z</time>
      </trkpt>
      <trkpt lat="43.37516" lon="5.41312">
        <ele>344.68</ele>
        <time>2022-05-13T14:12:48.908Z</time>
      </trkpt>
      <trkpt lat="43.37498" lon="5.41309">
        <ele>342.61</ele>
        <time>2022-05-13T14:13:04.788Z</time>
      </trkpt>
      <trkpt lat="43.37481" lon="5.41304">
        <ele>340.41</ele>
        <time>2022-05-13T14:13:20.427Z</time>
      </trkpt>
      <trkpt lat="43.37461" lon="5.41309">
        <ele>338.1</ele>
        <time>2022-05-13T14:13:36.884Z</time>
      </trkpt>
      <trkpt lat="43.37443" lon="5.4131">
        <ele>335.69</ele>
        <time>2022-05-13T14:13:51.000Z</time>
      </trkpt>
      <trkpt lat="43.37427" lon="5.41323">
        <ele>333.53</ele>
        <time>2022-05-13T14:14:04.488Z</time>
      </trkpt>
      <trkpt lat="43.3741" lon="5.41332">
        <ele>331.41</ele>
        <time>2022-05-13T14:14:18.966Z</time>
      </trkpt>
      <trkpt lat="43.37392" lon="5.41337">
        <ele>329.63</ele>
        <time>2022-05-13T14:14:32.999Z</time>
      </trkpt>
      <trkpt lat="43.37374" lon="5.41339">
        <ele>328.1</ele>
        <time>2022-05-13T14:14:47.546Z</time>
      </trkpt>
      <trkpt lat="43.37355" lon="5.41341">
        <ele>326.71</ele>
        <time>2022-05-13T14:15:01.943Z</time>
      </trkpt>
      <trkpt lat="43.37337" lon="5.41341">
        <ele>325.56</ele>
        <time>2022-05-13T14:15:16.060Z</time>
      </trkpt>
      <trkpt lat="43.37317" lon="5.41342">
        <ele>324.2</ele>
        <time>2022-05-13T14:15:31.813Z</time>
      </trkpt>
      <trkpt lat="43.37299" lon="5.41343">
        <ele>322.97</ele>
        <time>2022-05-13T14:15:44.931Z</time>
      </trkpt>
      <trkpt lat="43.3728" lon="5.41343">
        <ele>322.03</ele>
        <time>2022-05-13T14:15:59.107Z</time>
      </trkpt>
      <trkpt lat="43.37263" lon="5.41349">
        <ele>320.35</ele>
        <time>2022-05-13T14:16:14.889Z</time>
      </trkpt>
      <trkpt lat="43.37244" lon="5.41354">
        <ele>318.79</ele>
        <time>2022-05-13T14:16:30.261Z</time>
      </trkpt>
      <trkpt lat="43.37227" lon="5.41361">
        <ele>317.17</ele>
        <time>2022-05-13T14:16:44.329Z</time>
      </trkpt>
      <trkpt lat="43.37209" lon="5.41363">
        <ele>316.14</ele>
        <time>2022-05-13T14:17:01.270Z</time>
      </trkpt>
      <trkpt lat="43.3719" lon="5.41369">
        <ele>314.96</ele>
        <time>2022-05-13T14:17:15.947Z</time>
      </trkpt>
      <trkpt lat="43.37173" lon="5.41375">
        <ele>313.98</ele>
        <time>2022-05-13T14:17:29.366Z</time>
      </trkpt>
      <trkpt lat="43.37154" lon="5.4138">
        <ele>313.01</ele>
        <time>2022-05-13T14:17:42.544Z</time>
      </trkpt>
      <trkpt lat="43.37137" lon="5.41388">
        <ele>311.9</ele>
        <time>2022-05-13T14:17:55.603Z</time>
      </trkpt>
      <trkpt lat="43.3712" lon="5.41395">
        <ele>310.76</ele>
        <time>2022-05-13T14:18:09.200Z</time>
      </trkpt>
      <trkpt lat="43.37103" lon="5.41404">
        <ele>309.53</ele>
        <time>2022-05-13T14:18:23.801Z</time>
      </trkpt>
      <trkpt lat="43.37086" lon="5.41415">
        <ele>308.17</ele>
        <time>2022-05-13T14:18:37.801Z</time>
      </trkpt>
      <trkpt lat="43.37068" lon="5.41426">
        <ele>306.86</ele>
        <time>2022-05-13T14:18:52.869Z</time>
      </trkpt>
      <trkpt lat="43.37051" lon="5.41436">
        <ele>305.73</ele>
        <time>2022-05-13T14:19:07.284Z</time>
      </trkpt>
      <trkpt lat="43.37034" lon="5.41447">
        <ele>304.62</ele>
        <time>2022-05-13T14:19:22.444Z</time>
      </trkpt>
      <trkpt lat="43.37023" lon="5.41427">
        <ele>304.93</ele>
        <time>2022-05-13T14:21:10.022Z</time>
      </trkpt>
      <trkpt lat="43.37015" lon="5.41404">
        <ele>305.12</ele>
        <time>2022-05-13T14:21:24.439Z</time>
      </trkpt>
      <trkpt lat="43.37012" lon="5.41379">
        <ele>305.11</ele>
        <time>2022-05-13T14:21:38.999Z</time>
      </trkpt>
      <trkpt lat="43.37007" lon="5.41355">
        <ele>304.67</ele>
        <time>2022-05-13T14:21:53.093Z</time>
      </trkpt>
      <trkpt lat="43.37001" lon="5.41331">
        <ele>304.02</ele>
        <time>2022-05-13T14:22:06.707Z</time>
      </trkpt>
      <trkpt lat="43.36995" lon="5.41306">
        <ele>303.29</ele>
        <time>2022-05-13T14:22:21.808Z</time>
      </trkpt>
      <trkpt lat="43.36991" lon="5.41282">
        <ele>302.5</ele>
        <time>2022-05-13T14:22:35.821Z</time>
      </trkpt>
      <trkpt lat="43.36981" lon="5.41261">
        <ele>301.07</ele>
        <time>2022-05-13T14:22:50.953Z</time>
      </trkpt>
      <trkpt lat="43.36963" lon="5.41253">
        <ele>299.52</ele>
        <time>2022-05-13T14:23:07.089Z</time>
      </trkpt>
      <trkpt lat="43.36946" lon="5.41265">
        <ele>298.85</ele>
        <time>2022-05-13T14:23:22.026Z</time>
      </trkpt>
      <trkpt lat="43.36928" lon="5.41271">
        <ele>297.79</ele>
        <time>2022-05-13T14:23:37.019Z</time>
      </trkpt>
      <trkpt lat="43.36911" lon="5.41279">
        <ele>296.86</ele>
        <time>2022-05-13T14:23:51.607Z</time>
      </trkpt>
      <trkpt lat="43.36895" lon="5.41291">
        <ele>296.08</ele>
        <time>2022-05-13T14:24:05.625Z</time>
      </trkpt>
      <trkpt lat="43.36877" lon="5.41295">
        <ele>294.78</ele>
        <time>2022-05-13T14:24:19.485Z</time>
      </trkpt>
      <trkpt lat="43.36859" lon="5.41301">
        <ele>293.63</ele>
        <time>2022-05-13T14:24:34.131Z</time>
      </trkpt>
      <trkpt lat="43.36842" lon="5.41309">
        <ele>292.74</ele>
        <time>2022-05-13T14:24:47.828Z</time>
      </trkpt>
      <trkpt lat="43.36824" lon="5.41316">
        <ele>291.93</ele>
        <time>2022-05-13T14:25:00.626Z</time>
      </trkpt>
      <trkpt lat="43.36807" lon="5.41324">
        <ele>291.27</ele>
        <time>2022-05-13T14:25:16.012Z</time>
      </trkpt>
      <trkpt lat="43.3679" lon="5.41331">
        <ele>290.6</ele>
        <time>2022-05-13T14:25:30.527Z</time>
      </trkpt>
      <trkpt lat="43.36773" lon="5.4134">
        <ele>289.99</ele>
        <time>2022-05-13T14:25:46.225Z</time>
      </trkpt>
      <trkpt lat="43.36755" lon="5.41347">
        <ele>289.31</ele>
        <time>2022-05-13T14:26:00.019Z</time>
      </trkpt>
      <trkpt lat="43.36737" lon="5.41352">
        <ele>288.72</ele>
        <time>2022-05-13T14:26:13.951Z</time>
      </trkpt>
      <trkpt lat="43.36719" lon="5.4136">
        <ele>288.26</ele>
        <time>2022-05-13T14:26:27.932Z</time>
      </trkpt>
      <trkpt lat="43.36702" lon="5.41371">
        <ele>287.71</ele>
        <time>2022-05-13T14:26:44.000Z</time>
      </trkpt>
      <trkpt lat="43.36684" lon="5.41377">
        <ele>286.96</ele>
        <time>2022-05-13T14:26:58.790Z</time>
      </trkpt>
      <trkpt lat="43.36667" lon="5.41387">
        <ele>285.92</ele>
        <time>2022-05-13T14:27:12.928Z</time>
      </trkpt>
      <trkpt lat="43.36649" lon="5.41391">
        <ele>284.86</ele>
        <time>2022-05-13T14:27:27.624Z</time>
      </trkpt>
      <trkpt lat="43.3663" lon="5.41394">
        <ele>283.79</ele>
        <time>2022-05-13T14:27:41.830Z</time>
      </trkpt>
      <trkpt lat="43.36612" lon="5.41393">
        <ele>282.79</ele>
        <time>2022-05-13T14:27:56.570Z</time>
      </trkpt>
      <trkpt lat="43.36594" lon="5.41394">
        <ele>281.7</ele>
        <time>2022-05-13T14:28:10.967Z</time>
      </trkpt>
      <trkpt lat="43.36575" lon="5.4139">
        <ele>280.63</ele>
        <time>2022-05-13T14:28:24.706Z</time>
      </trkpt>
      <trkpt lat="43.36557" lon="5.41386">
        <ele>279.52</ele>
        <time>2022-05-13T14:28:39.031Z</time>
      </trkpt>
      <trkpt lat="43.36539" lon="5.41381">
        <ele>278.41</ele>
        <time>2022-05-13T14:28:52.765Z</time>
      </trkpt>
      <trkpt lat="43.36521" lon="5.41377">
        <ele>277.27</ele>
        <time>2022-05-13T14:29:05.902Z</time>
      </trkpt>
      <trkpt lat="43.36503" lon="5.41378">
        <ele>276.13</ele>
        <time>2022-05-13T14:29:20.621Z</time>
      </trkpt>
      <trkpt lat="43.36485" lon="5.41378">
        <ele>275</ele>
        <time>2022-05-13T14:29:35.551Z</time>
      </trkpt>
      <trkpt lat="43.36467" lon="5.41376">
        <ele>273.92</ele>
        <time>2022-05-13T14:29:51.352Z</time>
      </trkpt>
      <trkpt lat="43.36449" lon="5.41369">
        <ele>273.19</ele>
        <time>2022-05-13T14:30:06.450Z</time>
      </trkpt>
      <trkpt lat="43.3643" lon="5.41368">
        <ele>272.2</ele>
        <time>2022-05-13T14:30:20.088Z</time>
      </trkpt>
      <trkpt lat="43.36414" lon="5.4138">
        <ele>270.28</ele>
        <time>2022-05-13T14:30:33.786Z</time>
      </trkpt>
      <trkpt lat="43.36397" lon="5.4139">
        <ele>268.6</ele>
        <time>2022-05-13T14:30:49.565Z</time>
      </trkpt>
      <trkpt lat="43.36379" lon="5.41392">
        <ele>267.41</ele>
        <time>2022-05-13T14:31:03.730Z</time>
      </trkpt>
      <trkpt lat="43.3636" lon="5.41387">
        <ele>266.26</ele>
        <time>2022-05-13T14:31:19.832Z</time>
      </trkpt>
      <trkpt lat="43.36341" lon="5.41381">
        <ele>264.9</ele>
        <time>2022-05-13T14:31:32.023Z</time>
      </trkpt>
      <trkpt lat="43.36323" lon="5.41375">
        <ele>263.63</ele>
        <time>2022-05-13T14:31:44.627Z</time>
      </trkpt>
      <trkpt lat="43.36305" lon="5.41366">
        <ele>262.53</ele>
        <time>2022-05-13T14:31:59.845Z</time>
      </trkpt>
      <trkpt lat="43.36287" lon="5.41362">
        <ele>261.91</ele>
        <time>2022-05-13T14:32:12.763Z</time>
      </trkpt>
      <trkpt lat="43.36269" lon="5.41356">
        <ele>261.55</ele>
        <time>2022-05-13T14:32:27.009Z</time>
      </trkpt>
      <trkpt lat="43.36257" lon="5.41338">
        <ele>261.16</ele>
        <time>2022-05-13T14:32:39.999Z</time>
      </trkpt>
      <trkpt lat="43.36243" lon="5.41321">
        <ele>260.61</ele>
        <time>2022-05-13T14:32:54.952Z</time>
      </trkpt>
      <trkpt lat="43.36228" lon="5.41307">
        <ele>260.3</ele>
        <time>2022-05-13T14:33:42.707Z</time>
      </trkpt>
      <trkpt lat="43.3621" lon="5.41301">
        <ele>260.77</ele>
        <time>2022-05-13T14:33:54.445Z</time>
      </trkpt>
      <trkpt lat="43.36192" lon="5.41298">
        <ele>261.52</ele>
        <time>2022-05-13T14:34:06.865Z</time>
      </trkpt>
      <trkpt lat="43.36174" lon="5.41296">
        <ele>262.02</ele>
        <time>2022-05-13T14:34:19.999Z</time>
      </trkpt>
      <trkpt lat="43.36155" lon="5.41296">
        <ele>261.95</ele>
        <time>2022-05-13T14:34:31.999Z</time>
      </trkpt>
      <trkpt lat="43.36136" lon="5.41295">
        <ele>261.55</ele>
        <time>2022-05-13T14:34:44.128Z</time>
      </trkpt>
      <trkpt lat="43.36118" lon="5.41294">
        <ele>260.84</ele>
        <time>2022-05-13T14:34:56.032Z</time>
      </trkpt>
      <trkpt lat="43.36099" lon="5.41298">
        <ele>259.92</ele>
        <time>2022-05-13T14:35:09.606Z</time>
      </trkpt>
      <trkpt lat="43.3608" lon="5.41294">
        <ele>258.5</ele>
        <time>2022-05-13T14:35:23.806Z</time>
      </trkpt>
      <trkpt lat="43.36062" lon="5.41286">
        <ele>256.55</ele>
        <time>2022-05-13T14:35:36.644Z</time>
      </trkpt>
      <trkpt lat="43.36045" lon="5.41276">
        <ele>254.37</ele>
        <time>2022-05-13T14:35:51.251Z</time>
      </trkpt>
      <trkpt lat="43.36028" lon="5.41266">
        <ele>252.5</ele>
        <time>2022-05-13T14:36:07.773Z</time>
      </trkpt>
      <trkpt lat="43.36013" lon="5.4128">
        <ele>250.86</ele>
        <time>2022-05-13T14:36:28.527Z</time>
      </trkpt>
      <trkpt lat="43.36013" lon="5.41281">
        <ele>250.79</ele>
        <time>2022-05-13T14:36:40.999Z</time>
      </trkpt>
    </trkseg>
  </trk>
</gpx>